<?xml version="1.0" encoding="UTF-8" standalone="no" ?>
<gpx xmlns="http://www.topografix.com/GPX/1/1" xmlns:xsi="http://www.w3.org/2001/XMLSchema-instance" xsi:schemaLocation="http://www.topografix.com/GPX/1/1 http://www.topografix.com/GPX/1/1/gpx.xsd" version="1.1" creator="VisuGPX - https://www.visugpx.com">
  <metadata>
    <name>AN ATH à Fosse la Ville</name>
    <desc><![CDATA[Marche Fédérale le 8 octobre,très beau circuit . ]]></desc>
  </metadata>
  <trk>
    <name><![CDATA[FOSSE10-08 11:39:00]]></name>
    <trkseg>
      <trkpt lat="50.39714" lon="4.69732">
        <ele>179.42</ele>
        <time>2016-10-08T07:03:56Z</time>
      </trkpt>
      <trkpt lat="50.39718" lon="4.69736">
        <ele>179.42</ele>
        <time>2016-10-08T07:04:18Z</time>
      </trkpt>
      <trkpt lat="50.3972" lon="4.69737">
        <ele>179.42</ele>
        <time>2016-10-08T07:04:36Z</time>
      </trkpt>
      <trkpt lat="50.39723" lon="4.6974">
        <ele>179.42</ele>
        <time>2016-10-08T07:04:48Z</time>
      </trkpt>
      <trkpt lat="50.39732" lon="4.69749">
        <ele>178.94</ele>
        <time>2016-10-08T07:05:01Z</time>
      </trkpt>
      <trkpt lat="50.39736" lon="4.69751">
        <ele>178.94</ele>
        <time>2016-10-08T07:05:05Z</time>
      </trkpt>
      <trkpt lat="50.39743" lon="4.69755">
        <ele>177.98</ele>
        <time>2016-10-08T07:05:11Z</time>
      </trkpt>
      <trkpt lat="50.39753" lon="4.69764">
        <ele>176.06</ele>
        <time>2016-10-08T07:05:26Z</time>
      </trkpt>
      <trkpt lat="50.39756" lon="4.69766">
        <ele>176.06</ele>
        <time>2016-10-08T07:05:45Z</time>
      </trkpt>
      <trkpt lat="50.39756" lon="4.69766">
        <ele>176.06</ele>
        <time>2016-10-08T07:05:51Z</time>
      </trkpt>
      <trkpt lat="50.39764" lon="4.69754">
        <ele>175.58</ele>
        <time>2016-10-08T07:06:00Z</time>
      </trkpt>
      <trkpt lat="50.39757" lon="4.69721">
        <ele>175.58</ele>
        <time>2016-10-08T07:06:16Z</time>
      </trkpt>
      <trkpt lat="50.39754" lon="4.69715">
        <ele>175.58</ele>
        <time>2016-10-08T07:06:19Z</time>
      </trkpt>
      <trkpt lat="50.39738" lon="4.69687">
        <ele>175.58</ele>
        <time>2016-10-08T07:06:36Z</time>
      </trkpt>
      <trkpt lat="50.39737" lon="4.69683">
        <ele>175.58</ele>
        <time>2016-10-08T07:06:38Z</time>
      </trkpt>
      <trkpt lat="50.39748" lon="4.69654">
        <ele>175.1</ele>
        <time>2016-10-08T07:06:56Z</time>
      </trkpt>
      <trkpt lat="50.39757" lon="4.6964">
        <ele>174.62</ele>
        <time>2016-10-08T07:07:06Z</time>
      </trkpt>
      <trkpt lat="50.39758" lon="4.69637">
        <ele>176.54</ele>
        <time>2016-10-08T07:07:08Z</time>
      </trkpt>
      <trkpt lat="50.39763" lon="4.69633">
        <ele>174.14</ele>
        <time>2016-10-08T07:07:12Z</time>
      </trkpt>
      <trkpt lat="50.39781" lon="4.69615">
        <ele>173.66</ele>
        <time>2016-10-08T07:07:31Z</time>
      </trkpt>
      <trkpt lat="50.39796" lon="4.69593">
        <ele>173.17</ele>
        <time>2016-10-08T07:07:48Z</time>
      </trkpt>
      <trkpt lat="50.39803" lon="4.69585">
        <ele>172.69</ele>
        <time>2016-10-08T07:07:54Z</time>
      </trkpt>
      <trkpt lat="50.39819" lon="4.69566">
        <ele>172.69</ele>
        <time>2016-10-08T07:08:10Z</time>
      </trkpt>
      <trkpt lat="50.39824" lon="4.69554">
        <ele>172.69</ele>
        <time>2016-10-08T07:08:18Z</time>
      </trkpt>
      <trkpt lat="50.39836" lon="4.69532">
        <ele>172.69</ele>
        <time>2016-10-08T07:08:32Z</time>
      </trkpt>
      <trkpt lat="50.39837" lon="4.69529">
        <ele>172.69</ele>
        <time>2016-10-08T07:08:34Z</time>
      </trkpt>
      <trkpt lat="50.39839" lon="4.69518">
        <ele>172.69</ele>
        <time>2016-10-08T07:08:42Z</time>
      </trkpt>
      <trkpt lat="50.39839" lon="4.69513">
        <ele>172.69</ele>
        <time>2016-10-08T07:08:45Z</time>
      </trkpt>
      <trkpt lat="50.39838" lon="4.69506">
        <ele>172.69</ele>
        <time>2016-10-08T07:08:49Z</time>
      </trkpt>
      <trkpt lat="50.39834" lon="4.69476">
        <ele>172.69</ele>
        <time>2016-10-08T07:09:05Z</time>
      </trkpt>
      <trkpt lat="50.39833" lon="4.69471">
        <ele>172.69</ele>
        <time>2016-10-08T07:09:08Z</time>
      </trkpt>
      <trkpt lat="50.39836" lon="4.69459">
        <ele>172.69</ele>
        <time>2016-10-08T07:09:15Z</time>
      </trkpt>
      <trkpt lat="50.39842" lon="4.69427">
        <ele>174.14</ele>
        <time>2016-10-08T07:09:31Z</time>
      </trkpt>
      <trkpt lat="50.39846" lon="4.69403">
        <ele>174.14</ele>
        <time>2016-10-08T07:09:44Z</time>
      </trkpt>
      <trkpt lat="50.39846" lon="4.694">
        <ele>174.62</ele>
        <time>2016-10-08T07:09:46Z</time>
      </trkpt>
      <trkpt lat="50.39854" lon="4.69365">
        <ele>175.1</ele>
        <time>2016-10-08T07:10:04Z</time>
      </trkpt>
      <trkpt lat="50.39858" lon="4.69337">
        <ele>176.06</ele>
        <time>2016-10-08T07:10:19Z</time>
      </trkpt>
      <trkpt lat="50.39865" lon="4.69307">
        <ele>176.06</ele>
        <time>2016-10-08T07:10:36Z</time>
      </trkpt>
      <trkpt lat="50.39877" lon="4.69282">
        <ele>176.06</ele>
        <time>2016-10-08T07:10:53Z</time>
      </trkpt>
      <trkpt lat="50.39887" lon="4.69265">
        <ele>176.06</ele>
        <time>2016-10-08T07:11:08Z</time>
      </trkpt>
      <trkpt lat="50.39902" lon="4.69243">
        <ele>176.06</ele>
        <time>2016-10-08T07:11:24Z</time>
      </trkpt>
      <trkpt lat="50.39919" lon="4.69219">
        <ele>176.06</ele>
        <time>2016-10-08T07:11:42Z</time>
      </trkpt>
      <trkpt lat="50.39934" lon="4.69206">
        <ele>175.1</ele>
        <time>2016-10-08T07:11:56Z</time>
      </trkpt>
      <trkpt lat="50.39939" lon="4.69203">
        <ele>175.1</ele>
        <time>2016-10-08T07:12:00Z</time>
      </trkpt>
      <trkpt lat="50.39962" lon="4.69193">
        <ele>174.62</ele>
        <time>2016-10-08T07:12:17Z</time>
      </trkpt>
      <trkpt lat="50.39978" lon="4.69181">
        <ele>174.62</ele>
        <time>2016-10-08T07:12:30Z</time>
      </trkpt>
      <trkpt lat="50.39995" lon="4.69169">
        <ele>176.06</ele>
        <time>2016-10-08T07:12:45Z</time>
      </trkpt>
      <trkpt lat="50.40017" lon="4.69155">
        <ele>176.54</ele>
        <time>2016-10-08T07:13:04Z</time>
      </trkpt>
      <trkpt lat="50.40039" lon="4.6914">
        <ele>176.54</ele>
        <time>2016-10-08T07:13:24Z</time>
      </trkpt>
      <trkpt lat="50.40059" lon="4.69127">
        <ele>176.54</ele>
        <time>2016-10-08T07:13:41Z</time>
      </trkpt>
      <trkpt lat="50.40081" lon="4.69105">
        <ele>174.14</ele>
        <time>2016-10-08T07:14:01Z</time>
      </trkpt>
      <trkpt lat="50.40099" lon="4.69079">
        <ele>172.21</ele>
        <time>2016-10-08T07:14:19Z</time>
      </trkpt>
      <trkpt lat="50.40114" lon="4.69056">
        <ele>170.77</ele>
        <time>2016-10-08T07:14:36Z</time>
      </trkpt>
      <trkpt lat="50.40129" lon="4.69031">
        <ele>169.81</ele>
        <time>2016-10-08T07:14:54Z</time>
      </trkpt>
      <trkpt lat="50.40142" lon="4.69008">
        <ele>169.81</ele>
        <time>2016-10-08T07:15:09Z</time>
      </trkpt>
      <trkpt lat="50.40158" lon="4.68984">
        <ele>169.81</ele>
        <time>2016-10-08T07:15:26Z</time>
      </trkpt>
      <trkpt lat="50.40175" lon="4.68963">
        <ele>168.85</ele>
        <time>2016-10-08T07:15:43Z</time>
      </trkpt>
      <trkpt lat="50.4018" lon="4.68944">
        <ele>168.37</ele>
        <time>2016-10-08T07:15:54Z</time>
      </trkpt>
      <trkpt lat="50.40175" lon="4.68938">
        <ele>168.37</ele>
        <time>2016-10-08T07:15:59Z</time>
      </trkpt>
      <trkpt lat="50.40161" lon="4.68946">
        <ele>168.37</ele>
        <time>2016-10-08T07:16:14Z</time>
      </trkpt>
      <trkpt lat="50.4016" lon="4.68946">
        <ele>168.37</ele>
        <time>2016-10-08T07:16:15Z</time>
      </trkpt>
      <trkpt lat="50.40158" lon="4.68947">
        <ele>169.81</ele>
        <time>2016-10-08T07:16:17Z</time>
      </trkpt>
      <trkpt lat="50.40155" lon="4.68949">
        <ele>169.81</ele>
        <time>2016-10-08T07:16:19Z</time>
      </trkpt>
      <trkpt lat="50.40127" lon="4.68945">
        <ele>170.77</ele>
        <time>2016-10-08T07:16:39Z</time>
      </trkpt>
      <trkpt lat="50.4011" lon="4.6893">
        <ele>172.21</ele>
        <time>2016-10-08T07:16:56Z</time>
      </trkpt>
      <trkpt lat="50.40094" lon="4.68915">
        <ele>172.21</ele>
        <time>2016-10-08T07:17:11Z</time>
      </trkpt>
      <trkpt lat="50.40078" lon="4.68898">
        <ele>173.17</ele>
        <time>2016-10-08T07:17:27Z</time>
      </trkpt>
      <trkpt lat="50.40064" lon="4.68884">
        <ele>173.66</ele>
        <time>2016-10-08T07:17:41Z</time>
      </trkpt>
      <trkpt lat="50.40046" lon="4.68865">
        <ele>174.62</ele>
        <time>2016-10-08T07:17:57Z</time>
      </trkpt>
      <trkpt lat="50.40029" lon="4.68847">
        <ele>175.58</ele>
        <time>2016-10-08T07:18:13Z</time>
      </trkpt>
      <trkpt lat="50.4001" lon="4.68829">
        <ele>176.06</ele>
        <time>2016-10-08T07:18:31Z</time>
      </trkpt>
      <trkpt lat="50.39989" lon="4.68815">
        <ele>176.54</ele>
        <time>2016-10-08T07:18:47Z</time>
      </trkpt>
      <trkpt lat="50.39968" lon="4.68806">
        <ele>177.5</ele>
        <time>2016-10-08T07:19:04Z</time>
      </trkpt>
      <trkpt lat="50.39948" lon="4.68797">
        <ele>177.5</ele>
        <time>2016-10-08T07:19:21Z</time>
      </trkpt>
      <trkpt lat="50.39941" lon="4.68795">
        <ele>178.46</ele>
        <time>2016-10-08T07:19:27Z</time>
      </trkpt>
      <trkpt lat="50.39918" lon="4.68786">
        <ele>180.38</ele>
        <time>2016-10-08T07:19:45Z</time>
      </trkpt>
      <trkpt lat="50.39896" lon="4.68781">
        <ele>180.87</ele>
        <time>2016-10-08T07:20:03Z</time>
      </trkpt>
      <trkpt lat="50.39876" lon="4.68781">
        <ele>182.31</ele>
        <time>2016-10-08T07:20:20Z</time>
      </trkpt>
      <trkpt lat="50.39856" lon="4.68783">
        <ele>184.23</ele>
        <time>2016-10-08T07:20:37Z</time>
      </trkpt>
      <trkpt lat="50.3984" lon="4.68787">
        <ele>186.15</ele>
        <time>2016-10-08T07:20:51Z</time>
      </trkpt>
      <trkpt lat="50.39819" lon="4.68794">
        <ele>188.08</ele>
        <time>2016-10-08T07:21:08Z</time>
      </trkpt>
      <trkpt lat="50.39806" lon="4.688">
        <ele>189.04</ele>
        <time>2016-10-08T07:21:20Z</time>
      </trkpt>
      <trkpt lat="50.39788" lon="4.68806">
        <ele>190.48</ele>
        <time>2016-10-08T07:21:35Z</time>
      </trkpt>
      <trkpt lat="50.39775" lon="4.6881">
        <ele>190.96</ele>
        <time>2016-10-08T07:21:45Z</time>
      </trkpt>
      <trkpt lat="50.3976" lon="4.68815">
        <ele>190.96</ele>
        <time>2016-10-08T07:21:56Z</time>
      </trkpt>
      <trkpt lat="50.39742" lon="4.68815">
        <ele>192.4</ele>
        <time>2016-10-08T07:22:10Z</time>
      </trkpt>
      <trkpt lat="50.39719" lon="4.68814">
        <ele>192.88</ele>
        <time>2016-10-08T07:22:27Z</time>
      </trkpt>
      <trkpt lat="50.39699" lon="4.68812">
        <ele>193.36</ele>
        <time>2016-10-08T07:22:43Z</time>
      </trkpt>
      <trkpt lat="50.39677" lon="4.68808">
        <ele>193.84</ele>
        <time>2016-10-08T07:23:00Z</time>
      </trkpt>
      <trkpt lat="50.39657" lon="4.68805">
        <ele>194.32</ele>
        <time>2016-10-08T07:23:16Z</time>
      </trkpt>
      <trkpt lat="50.39651" lon="4.68806">
        <ele>194.32</ele>
        <time>2016-10-08T07:23:21Z</time>
      </trkpt>
      <trkpt lat="50.3965" lon="4.68807">
        <ele>194.32</ele>
        <time>2016-10-08T07:23:22Z</time>
      </trkpt>
      <trkpt lat="50.39649" lon="4.68807">
        <ele>194.32</ele>
        <time>2016-10-08T07:23:23Z</time>
      </trkpt>
      <trkpt lat="50.39634" lon="4.68809">
        <ele>194.8</ele>
        <time>2016-10-08T07:23:35Z</time>
      </trkpt>
      <trkpt lat="50.39619" lon="4.68803">
        <ele>195.77</ele>
        <time>2016-10-08T07:23:47Z</time>
      </trkpt>
      <trkpt lat="50.39614" lon="4.68801">
        <ele>195.77</ele>
        <time>2016-10-08T07:23:51Z</time>
      </trkpt>
      <trkpt lat="50.39613" lon="4.68801">
        <ele>195.77</ele>
        <time>2016-10-08T07:23:52Z</time>
      </trkpt>
      <trkpt lat="50.39596" lon="4.68792">
        <ele>196.25</ele>
        <time>2016-10-08T07:24:05Z</time>
      </trkpt>
      <trkpt lat="50.39579" lon="4.68788">
        <ele>196.73</ele>
        <time>2016-10-08T07:24:19Z</time>
      </trkpt>
      <trkpt lat="50.39561" lon="4.68788">
        <ele>197.69</ele>
        <time>2016-10-08T07:24:32Z</time>
      </trkpt>
      <trkpt lat="50.3956" lon="4.68788">
        <ele>197.69</ele>
        <time>2016-10-08T07:24:33Z</time>
      </trkpt>
      <trkpt lat="50.39558" lon="4.68788">
        <ele>197.69</ele>
        <time>2016-10-08T07:24:34Z</time>
      </trkpt>
      <trkpt lat="50.3954" lon="4.68785">
        <ele>197.69</ele>
        <time>2016-10-08T07:24:49Z</time>
      </trkpt>
      <trkpt lat="50.39538" lon="4.68785">
        <ele>197.69</ele>
        <time>2016-10-08T07:24:50Z</time>
      </trkpt>
      <trkpt lat="50.39523" lon="4.68783">
        <ele>197.69</ele>
        <time>2016-10-08T07:25:02Z</time>
      </trkpt>
      <trkpt lat="50.39514" lon="4.68783">
        <ele>198.17</ele>
        <time>2016-10-08T07:25:09Z</time>
      </trkpt>
      <trkpt lat="50.3951" lon="4.68783">
        <ele>198.17</ele>
        <time>2016-10-08T07:25:12Z</time>
      </trkpt>
      <trkpt lat="50.39509" lon="4.68783">
        <ele>198.17</ele>
        <time>2016-10-08T07:25:13Z</time>
      </trkpt>
      <trkpt lat="50.39508" lon="4.68782">
        <ele>198.17</ele>
        <time>2016-10-08T07:25:14Z</time>
      </trkpt>
      <trkpt lat="50.39507" lon="4.68782">
        <ele>198.17</ele>
        <time>2016-10-08T07:25:15Z</time>
      </trkpt>
      <trkpt lat="50.39505" lon="4.68781">
        <ele>198.17</ele>
        <time>2016-10-08T07:25:16Z</time>
      </trkpt>
      <trkpt lat="50.39504" lon="4.68781">
        <ele>198.17</ele>
        <time>2016-10-08T07:25:17Z</time>
      </trkpt>
      <trkpt lat="50.39502" lon="4.68781">
        <ele>198.17</ele>
        <time>2016-10-08T07:25:18Z</time>
      </trkpt>
      <trkpt lat="50.39487" lon="4.68771">
        <ele>198.65</ele>
        <time>2016-10-08T07:25:32Z</time>
      </trkpt>
      <trkpt lat="50.39465" lon="4.6876">
        <ele>199.13</ele>
        <time>2016-10-08T07:25:49Z</time>
      </trkpt>
      <trkpt lat="50.39451" lon="4.6875">
        <ele>199.61</ele>
        <time>2016-10-08T07:26:03Z</time>
      </trkpt>
      <trkpt lat="50.39434" lon="4.68739">
        <ele>200.09</ele>
        <time>2016-10-08T07:26:18Z</time>
      </trkpt>
      <trkpt lat="50.39416" lon="4.6873">
        <ele>200.57</ele>
        <time>2016-10-08T07:26:34Z</time>
      </trkpt>
      <trkpt lat="50.39411" lon="4.68726">
        <ele>200.57</ele>
        <time>2016-10-08T07:26:49Z</time>
      </trkpt>
      <trkpt lat="50.39408" lon="4.68724">
        <ele>200.57</ele>
        <time>2016-10-08T07:27:02Z</time>
      </trkpt>
      <trkpt lat="50.39403" lon="4.68723">
        <ele>200.57</ele>
        <time>2016-10-08T07:27:05Z</time>
      </trkpt>
      <trkpt lat="50.39396" lon="4.68721">
        <ele>200.57</ele>
        <time>2016-10-08T07:27:16Z</time>
      </trkpt>
      <trkpt lat="50.39382" lon="4.68714">
        <ele>200.57</ele>
        <time>2016-10-08T07:27:30Z</time>
      </trkpt>
      <trkpt lat="50.3938" lon="4.68713">
        <ele>200.57</ele>
        <time>2016-10-08T07:27:32Z</time>
      </trkpt>
      <trkpt lat="50.39368" lon="4.68706">
        <ele>201.05</ele>
        <time>2016-10-08T07:27:44Z</time>
      </trkpt>
      <trkpt lat="50.39354" lon="4.687">
        <ele>201.05</ele>
        <time>2016-10-08T07:27:56Z</time>
      </trkpt>
      <trkpt lat="50.39353" lon="4.68699">
        <ele>201.05</ele>
        <time>2016-10-08T07:27:57Z</time>
      </trkpt>
      <trkpt lat="50.39352" lon="4.68698">
        <ele>201.05</ele>
        <time>2016-10-08T07:27:58Z</time>
      </trkpt>
      <trkpt lat="50.3935" lon="4.68697">
        <ele>201.05</ele>
        <time>2016-10-08T07:28:00Z</time>
      </trkpt>
      <trkpt lat="50.39349" lon="4.68697">
        <ele>200.57</ele>
        <time>2016-10-08T07:28:01Z</time>
      </trkpt>
      <trkpt lat="50.39348" lon="4.68697">
        <ele>201.05</ele>
        <time>2016-10-08T07:28:02Z</time>
      </trkpt>
      <trkpt lat="50.39347" lon="4.68696">
        <ele>200.57</ele>
        <time>2016-10-08T07:28:03Z</time>
      </trkpt>
      <trkpt lat="50.39346" lon="4.68695">
        <ele>200.57</ele>
        <time>2016-10-08T07:28:04Z</time>
      </trkpt>
      <trkpt lat="50.39344" lon="4.68695">
        <ele>200.57</ele>
        <time>2016-10-08T07:28:05Z</time>
      </trkpt>
      <trkpt lat="50.3932" lon="4.68693">
        <ele>200.57</ele>
        <time>2016-10-08T07:28:22Z</time>
      </trkpt>
      <trkpt lat="50.39301" lon="4.68681">
        <ele>200.57</ele>
        <time>2016-10-08T07:28:35Z</time>
      </trkpt>
      <trkpt lat="50.39298" lon="4.68679">
        <ele>200.57</ele>
        <time>2016-10-08T07:28:38Z</time>
      </trkpt>
      <trkpt lat="50.39297" lon="4.68678">
        <ele>200.57</ele>
        <time>2016-10-08T07:28:39Z</time>
      </trkpt>
      <trkpt lat="50.39295" lon="4.68676">
        <ele>200.57</ele>
        <time>2016-10-08T07:28:40Z</time>
      </trkpt>
      <trkpt lat="50.39294" lon="4.68675">
        <ele>200.57</ele>
        <time>2016-10-08T07:28:41Z</time>
      </trkpt>
      <trkpt lat="50.39293" lon="4.68674">
        <ele>200.57</ele>
        <time>2016-10-08T07:28:42Z</time>
      </trkpt>
      <trkpt lat="50.39283" lon="4.68666">
        <ele>200.57</ele>
        <time>2016-10-08T07:28:57Z</time>
      </trkpt>
      <trkpt lat="50.39283" lon="4.68673">
        <ele>200.57</ele>
        <time>2016-10-08T07:29:15Z</time>
      </trkpt>
      <trkpt lat="50.39284" lon="4.68673">
        <ele>201.05</ele>
        <time>2016-10-08T07:29:46Z</time>
      </trkpt>
      <trkpt lat="50.39281" lon="4.68666">
        <ele>201.05</ele>
        <time>2016-10-08T07:30:01Z</time>
      </trkpt>
      <trkpt lat="50.3928" lon="4.68666">
        <ele>201.05</ele>
        <time>2016-10-08T07:30:02Z</time>
      </trkpt>
      <trkpt lat="50.39279" lon="4.68666">
        <ele>201.05</ele>
        <time>2016-10-08T07:30:03Z</time>
      </trkpt>
      <trkpt lat="50.39276" lon="4.68671">
        <ele>201.05</ele>
        <time>2016-10-08T07:30:06Z</time>
      </trkpt>
      <trkpt lat="50.39275" lon="4.68672">
        <ele>201.05</ele>
        <time>2016-10-08T07:30:07Z</time>
      </trkpt>
      <trkpt lat="50.39274" lon="4.68673">
        <ele>201.05</ele>
        <time>2016-10-08T07:30:08Z</time>
      </trkpt>
      <trkpt lat="50.39255" lon="4.68689">
        <ele>201.05</ele>
        <time>2016-10-08T07:30:23Z</time>
      </trkpt>
      <trkpt lat="50.39231" lon="4.6869">
        <ele>201.05</ele>
        <time>2016-10-08T07:30:41Z</time>
      </trkpt>
      <trkpt lat="50.39205" lon="4.68677">
        <ele>201.05</ele>
        <time>2016-10-08T07:31:00Z</time>
      </trkpt>
      <trkpt lat="50.39189" lon="4.6867">
        <ele>201.05</ele>
        <time>2016-10-08T07:31:15Z</time>
      </trkpt>
      <trkpt lat="50.39188" lon="4.6867">
        <ele>201.05</ele>
        <time>2016-10-08T07:31:16Z</time>
      </trkpt>
      <trkpt lat="50.39179" lon="4.68669">
        <ele>201.05</ele>
        <time>2016-10-08T07:31:26Z</time>
      </trkpt>
      <trkpt lat="50.39178" lon="4.68668">
        <ele>201.05</ele>
        <time>2016-10-08T07:31:27Z</time>
      </trkpt>
      <trkpt lat="50.39176" lon="4.68668">
        <ele>201.05</ele>
        <time>2016-10-08T07:31:28Z</time>
      </trkpt>
      <trkpt lat="50.39174" lon="4.68668">
        <ele>201.05</ele>
        <time>2016-10-08T07:31:29Z</time>
      </trkpt>
      <trkpt lat="50.39173" lon="4.68667">
        <ele>201.05</ele>
        <time>2016-10-08T07:31:30Z</time>
      </trkpt>
      <trkpt lat="50.39171" lon="4.68667">
        <ele>201.05</ele>
        <time>2016-10-08T07:31:31Z</time>
      </trkpt>
      <trkpt lat="50.39148" lon="4.68657">
        <ele>201.05</ele>
        <time>2016-10-08T07:31:49Z</time>
      </trkpt>
      <trkpt lat="50.39141" lon="4.68655">
        <ele>199.61</ele>
        <time>2016-10-08T07:31:54Z</time>
      </trkpt>
      <trkpt lat="50.39125" lon="4.68648">
        <ele>199.61</ele>
        <time>2016-10-08T07:32:07Z</time>
      </trkpt>
      <trkpt lat="50.39103" lon="4.68641">
        <ele>198.65</ele>
        <time>2016-10-08T07:32:22Z</time>
      </trkpt>
      <trkpt lat="50.39089" lon="4.68635">
        <ele>198.65</ele>
        <time>2016-10-08T07:32:33Z</time>
      </trkpt>
      <trkpt lat="50.39071" lon="4.68632">
        <ele>198.17</ele>
        <time>2016-10-08T07:32:47Z</time>
      </trkpt>
      <trkpt lat="50.3907" lon="4.68631">
        <ele>198.17</ele>
        <time>2016-10-08T07:32:48Z</time>
      </trkpt>
      <trkpt lat="50.39065" lon="4.68629">
        <ele>198.17</ele>
        <time>2016-10-08T07:32:52Z</time>
      </trkpt>
      <trkpt lat="50.39063" lon="4.68628">
        <ele>198.17</ele>
        <time>2016-10-08T07:32:53Z</time>
      </trkpt>
      <trkpt lat="50.39062" lon="4.68628">
        <ele>198.17</ele>
        <time>2016-10-08T07:32:54Z</time>
      </trkpt>
      <trkpt lat="50.39061" lon="4.68627">
        <ele>198.17</ele>
        <time>2016-10-08T07:32:55Z</time>
      </trkpt>
      <trkpt lat="50.3906" lon="4.68626">
        <ele>198.17</ele>
        <time>2016-10-08T07:32:56Z</time>
      </trkpt>
      <trkpt lat="50.39058" lon="4.68626">
        <ele>198.17</ele>
        <time>2016-10-08T07:32:57Z</time>
      </trkpt>
      <trkpt lat="50.39057" lon="4.68625">
        <ele>198.17</ele>
        <time>2016-10-08T07:32:58Z</time>
      </trkpt>
      <trkpt lat="50.39056" lon="4.68624">
        <ele>198.17</ele>
        <time>2016-10-08T07:32:59Z</time>
      </trkpt>
      <trkpt lat="50.39054" lon="4.68624">
        <ele>198.17</ele>
        <time>2016-10-08T07:33:00Z</time>
      </trkpt>
      <trkpt lat="50.39033" lon="4.68616">
        <ele>197.21</ele>
        <time>2016-10-08T07:33:16Z</time>
      </trkpt>
      <trkpt lat="50.39009" lon="4.68606">
        <ele>196.25</ele>
        <time>2016-10-08T07:33:34Z</time>
      </trkpt>
      <trkpt lat="50.3899" lon="4.68588">
        <ele>195.28</ele>
        <time>2016-10-08T07:33:52Z</time>
      </trkpt>
      <trkpt lat="50.38976" lon="4.68562">
        <ele>194.8</ele>
        <time>2016-10-08T07:34:07Z</time>
      </trkpt>
      <trkpt lat="50.38959" lon="4.68529">
        <ele>194.8</ele>
        <time>2016-10-08T07:34:27Z</time>
      </trkpt>
      <trkpt lat="50.38948" lon="4.68498">
        <ele>194.32</ele>
        <time>2016-10-08T07:34:44Z</time>
      </trkpt>
      <trkpt lat="50.38936" lon="4.685">
        <ele>192.88</ele>
        <time>2016-10-08T07:34:55Z</time>
      </trkpt>
      <trkpt lat="50.38935" lon="4.68501">
        <ele>192.88</ele>
        <time>2016-10-08T07:34:56Z</time>
      </trkpt>
      <trkpt lat="50.38934" lon="4.68502">
        <ele>192.88</ele>
        <time>2016-10-08T07:34:57Z</time>
      </trkpt>
      <trkpt lat="50.38932" lon="4.68503">
        <ele>192.4</ele>
        <time>2016-10-08T07:34:58Z</time>
      </trkpt>
      <trkpt lat="50.38931" lon="4.68504">
        <ele>192.4</ele>
        <time>2016-10-08T07:34:59Z</time>
      </trkpt>
      <trkpt lat="50.3893" lon="4.68505">
        <ele>192.4</ele>
        <time>2016-10-08T07:35:00Z</time>
      </trkpt>
      <trkpt lat="50.38929" lon="4.68506">
        <ele>192.4</ele>
        <time>2016-10-08T07:35:01Z</time>
      </trkpt>
      <trkpt lat="50.38912" lon="4.68525">
        <ele>190.96</ele>
        <time>2016-10-08T07:35:15Z</time>
      </trkpt>
      <trkpt lat="50.38895" lon="4.68548">
        <ele>189.52</ele>
        <time>2016-10-08T07:35:31Z</time>
      </trkpt>
      <trkpt lat="50.38878" lon="4.6857">
        <ele>188.56</ele>
        <time>2016-10-08T07:35:46Z</time>
      </trkpt>
      <trkpt lat="50.38869" lon="4.68584">
        <ele>188.08</ele>
        <time>2016-10-08T07:35:55Z</time>
      </trkpt>
      <trkpt lat="50.38868" lon="4.68585">
        <ele>188.08</ele>
        <time>2016-10-08T07:35:56Z</time>
      </trkpt>
      <trkpt lat="50.38868" lon="4.68587">
        <ele>188.08</ele>
        <time>2016-10-08T07:35:57Z</time>
      </trkpt>
      <trkpt lat="50.38867" lon="4.68589">
        <ele>188.08</ele>
        <time>2016-10-08T07:35:58Z</time>
      </trkpt>
      <trkpt lat="50.38866" lon="4.6859">
        <ele>188.08</ele>
        <time>2016-10-08T07:35:59Z</time>
      </trkpt>
      <trkpt lat="50.38865" lon="4.68592">
        <ele>188.08</ele>
        <time>2016-10-08T07:36:00Z</time>
      </trkpt>
      <trkpt lat="50.38865" lon="4.68594">
        <ele>188.08</ele>
        <time>2016-10-08T07:36:01Z</time>
      </trkpt>
      <trkpt lat="50.38864" lon="4.68596">
        <ele>188.08</ele>
        <time>2016-10-08T07:36:02Z</time>
      </trkpt>
      <trkpt lat="50.38863" lon="4.68598">
        <ele>188.08</ele>
        <time>2016-10-08T07:36:03Z</time>
      </trkpt>
      <trkpt lat="50.38863" lon="4.686">
        <ele>188.08</ele>
        <time>2016-10-08T07:36:04Z</time>
      </trkpt>
      <trkpt lat="50.38856" lon="4.68607">
        <ele>188.08</ele>
        <time>2016-10-08T07:36:10Z</time>
      </trkpt>
      <trkpt lat="50.38836" lon="4.68617">
        <ele>188.08</ele>
        <time>2016-10-08T07:36:27Z</time>
      </trkpt>
      <trkpt lat="50.38817" lon="4.68597">
        <ele>190.48</ele>
        <time>2016-10-08T07:36:44Z</time>
      </trkpt>
      <trkpt lat="50.38814" lon="4.68592">
        <ele>190.96</ele>
        <time>2016-10-08T07:36:47Z</time>
      </trkpt>
      <trkpt lat="50.38812" lon="4.68591">
        <ele>191.44</ele>
        <time>2016-10-08T07:36:48Z</time>
      </trkpt>
      <trkpt lat="50.38788" lon="4.68568">
        <ele>193.36</ele>
        <time>2016-10-08T07:37:07Z</time>
      </trkpt>
      <trkpt lat="50.38784" lon="4.68569">
        <ele>193.84</ele>
        <time>2016-10-08T07:37:10Z</time>
      </trkpt>
      <trkpt lat="50.38781" lon="4.6857">
        <ele>193.84</ele>
        <time>2016-10-08T07:37:13Z</time>
      </trkpt>
      <trkpt lat="50.3878" lon="4.68571">
        <ele>194.32</ele>
        <time>2016-10-08T07:37:14Z</time>
      </trkpt>
      <trkpt lat="50.38779" lon="4.68572">
        <ele>194.32</ele>
        <time>2016-10-08T07:37:15Z</time>
      </trkpt>
      <trkpt lat="50.38777" lon="4.68574">
        <ele>194.32</ele>
        <time>2016-10-08T07:37:16Z</time>
      </trkpt>
      <trkpt lat="50.38776" lon="4.68576">
        <ele>194.8</ele>
        <time>2016-10-08T07:37:17Z</time>
      </trkpt>
      <trkpt lat="50.38776" lon="4.68577">
        <ele>194.8</ele>
        <time>2016-10-08T07:37:18Z</time>
      </trkpt>
      <trkpt lat="50.38775" lon="4.68579">
        <ele>195.28</ele>
        <time>2016-10-08T07:37:19Z</time>
      </trkpt>
      <trkpt lat="50.38778" lon="4.68608">
        <ele>197.21</ele>
        <time>2016-10-08T07:37:33Z</time>
      </trkpt>
      <trkpt lat="50.38779" lon="4.68612">
        <ele>197.69</ele>
        <time>2016-10-08T07:37:35Z</time>
      </trkpt>
      <trkpt lat="50.3878" lon="4.68614">
        <ele>197.69</ele>
        <time>2016-10-08T07:37:36Z</time>
      </trkpt>
      <trkpt lat="50.38781" lon="4.68615">
        <ele>198.17</ele>
        <time>2016-10-08T07:37:37Z</time>
      </trkpt>
      <trkpt lat="50.38781" lon="4.68618">
        <ele>198.17</ele>
        <time>2016-10-08T07:37:38Z</time>
      </trkpt>
      <trkpt lat="50.38781" lon="4.6862">
        <ele>198.17</ele>
        <time>2016-10-08T07:37:39Z</time>
      </trkpt>
      <trkpt lat="50.38781" lon="4.68622">
        <ele>198.65</ele>
        <time>2016-10-08T07:37:40Z</time>
      </trkpt>
      <trkpt lat="50.38782" lon="4.68624">
        <ele>198.65</ele>
        <time>2016-10-08T07:37:41Z</time>
      </trkpt>
      <trkpt lat="50.38782" lon="4.68626">
        <ele>198.65</ele>
        <time>2016-10-08T07:37:42Z</time>
      </trkpt>
      <trkpt lat="50.38782" lon="4.68629">
        <ele>198.65</ele>
        <time>2016-10-08T07:37:43Z</time>
      </trkpt>
      <trkpt lat="50.38783" lon="4.68631">
        <ele>199.13</ele>
        <time>2016-10-08T07:37:44Z</time>
      </trkpt>
      <trkpt lat="50.38783" lon="4.68633">
        <ele>199.13</ele>
        <time>2016-10-08T07:37:45Z</time>
      </trkpt>
      <trkpt lat="50.38784" lon="4.68635">
        <ele>199.13</ele>
        <time>2016-10-08T07:37:46Z</time>
      </trkpt>
      <trkpt lat="50.38784" lon="4.68636">
        <ele>199.61</ele>
        <time>2016-10-08T07:37:47Z</time>
      </trkpt>
      <trkpt lat="50.38784" lon="4.68638">
        <ele>199.61</ele>
        <time>2016-10-08T07:37:48Z</time>
      </trkpt>
      <trkpt lat="50.38784" lon="4.6864">
        <ele>199.61</ele>
        <time>2016-10-08T07:37:49Z</time>
      </trkpt>
      <trkpt lat="50.38786" lon="4.68652">
        <ele>200.57</ele>
        <time>2016-10-08T07:37:56Z</time>
      </trkpt>
      <trkpt lat="50.38782" lon="4.68661">
        <ele>201.53</ele>
        <time>2016-10-08T07:38:01Z</time>
      </trkpt>
      <trkpt lat="50.38781" lon="4.68662">
        <ele>201.53</ele>
        <time>2016-10-08T07:38:02Z</time>
      </trkpt>
      <trkpt lat="50.3878" lon="4.68664">
        <ele>201.53</ele>
        <time>2016-10-08T07:38:03Z</time>
      </trkpt>
      <trkpt lat="50.38779" lon="4.68665">
        <ele>202.01</ele>
        <time>2016-10-08T07:38:04Z</time>
      </trkpt>
      <trkpt lat="50.38778" lon="4.68666">
        <ele>202.01</ele>
        <time>2016-10-08T07:38:05Z</time>
      </trkpt>
      <trkpt lat="50.38777" lon="4.68668">
        <ele>202.01</ele>
        <time>2016-10-08T07:38:06Z</time>
      </trkpt>
      <trkpt lat="50.38765" lon="4.68681">
        <ele>204.42</ele>
        <time>2016-10-08T07:38:20Z</time>
      </trkpt>
      <trkpt lat="50.38745" lon="4.68692">
        <ele>207.3</ele>
        <time>2016-10-08T07:38:36Z</time>
      </trkpt>
      <trkpt lat="50.38729" lon="4.68696">
        <ele>209.7</ele>
        <time>2016-10-08T07:38:51Z</time>
      </trkpt>
      <trkpt lat="50.38728" lon="4.68697">
        <ele>209.7</ele>
        <time>2016-10-08T07:38:52Z</time>
      </trkpt>
      <trkpt lat="50.38728" lon="4.68697">
        <ele>209.7</ele>
        <time>2016-10-08T07:38:53Z</time>
      </trkpt>
      <trkpt lat="50.38726" lon="4.68697">
        <ele>210.67</ele>
        <time>2016-10-08T07:38:54Z</time>
      </trkpt>
      <trkpt lat="50.38725" lon="4.68698">
        <ele>210.67</ele>
        <time>2016-10-08T07:38:55Z</time>
      </trkpt>
      <trkpt lat="50.3871" lon="4.687">
        <ele>213.55</ele>
        <time>2016-10-08T07:39:10Z</time>
      </trkpt>
      <trkpt lat="50.38694" lon="4.68701">
        <ele>215.95</ele>
        <time>2016-10-08T07:39:23Z</time>
      </trkpt>
      <trkpt lat="50.38676" lon="4.68698">
        <ele>218.84</ele>
        <time>2016-10-08T07:39:40Z</time>
      </trkpt>
      <trkpt lat="50.38669" lon="4.68696">
        <ele>219.8</ele>
        <time>2016-10-08T07:39:48Z</time>
      </trkpt>
      <trkpt lat="50.3866" lon="4.68687">
        <ele>221.24</ele>
        <time>2016-10-08T07:40:01Z</time>
      </trkpt>
      <trkpt lat="50.3866" lon="4.68688">
        <ele>221.24</ele>
        <time>2016-10-08T07:40:07Z</time>
      </trkpt>
      <trkpt lat="50.3866" lon="4.68688">
        <ele>221.24</ele>
        <time>2016-10-08T07:40:16Z</time>
      </trkpt>
      <trkpt lat="50.3866" lon="4.68688">
        <ele>221.24</ele>
        <time>2016-10-08T07:40:34Z</time>
      </trkpt>
      <trkpt lat="50.3866" lon="4.68687">
        <ele>221.24</ele>
        <time>2016-10-08T07:40:44Z</time>
      </trkpt>
      <trkpt lat="50.38659" lon="4.68685">
        <ele>221.24</ele>
        <time>2016-10-08T07:41:10Z</time>
      </trkpt>
      <trkpt lat="50.38659" lon="4.68683">
        <ele>221.24</ele>
        <time>2016-10-08T07:41:26Z</time>
      </trkpt>
      <trkpt lat="50.38659" lon="4.68681">
        <ele>221.24</ele>
        <time>2016-10-08T07:41:27Z</time>
      </trkpt>
      <trkpt lat="50.38658" lon="4.68679">
        <ele>221.24</ele>
        <time>2016-10-08T07:41:28Z</time>
      </trkpt>
      <trkpt lat="50.38657" lon="4.68678">
        <ele>221.24</ele>
        <time>2016-10-08T07:41:29Z</time>
      </trkpt>
      <trkpt lat="50.38656" lon="4.68676">
        <ele>221.24</ele>
        <time>2016-10-08T07:41:30Z</time>
      </trkpt>
      <trkpt lat="50.38642" lon="4.68652">
        <ele>222.68</ele>
        <time>2016-10-08T07:41:44Z</time>
      </trkpt>
      <trkpt lat="50.38632" lon="4.68629">
        <ele>224.12</ele>
        <time>2016-10-08T07:41:58Z</time>
      </trkpt>
      <trkpt lat="50.38619" lon="4.68613">
        <ele>225.57</ele>
        <time>2016-10-08T07:42:10Z</time>
      </trkpt>
      <trkpt lat="50.38618" lon="4.68611">
        <ele>225.57</ele>
        <time>2016-10-08T07:42:11Z</time>
      </trkpt>
      <trkpt lat="50.38606" lon="4.6858">
        <ele>226.53</ele>
        <time>2016-10-08T07:42:28Z</time>
      </trkpt>
      <trkpt lat="50.38604" lon="4.68545">
        <ele>226.53</ele>
        <time>2016-10-08T07:42:43Z</time>
      </trkpt>
      <trkpt lat="50.38603" lon="4.68538">
        <ele>226.53</ele>
        <time>2016-10-08T07:42:46Z</time>
      </trkpt>
      <trkpt lat="50.38602" lon="4.68536">
        <ele>226.53</ele>
        <time>2016-10-08T07:42:47Z</time>
      </trkpt>
      <trkpt lat="50.38601" lon="4.68534">
        <ele>226.53</ele>
        <time>2016-10-08T07:42:48Z</time>
      </trkpt>
      <trkpt lat="50.38598" lon="4.6853">
        <ele>226.53</ele>
        <time>2016-10-08T07:42:52Z</time>
      </trkpt>
      <trkpt lat="50.38592" lon="4.68527">
        <ele>227.01</ele>
        <time>2016-10-08T07:43:02Z</time>
      </trkpt>
      <trkpt lat="50.38586" lon="4.68507">
        <ele>227.01</ele>
        <time>2016-10-08T07:43:28Z</time>
      </trkpt>
      <trkpt lat="50.38589" lon="4.6851">
        <ele>227.01</ele>
        <time>2016-10-08T07:43:45Z</time>
      </trkpt>
      <trkpt lat="50.38591" lon="4.685">
        <ele>227.01</ele>
        <time>2016-10-08T07:44:06Z</time>
      </trkpt>
      <trkpt lat="50.38591" lon="4.68507">
        <ele>227.01</ele>
        <time>2016-10-08T07:44:30Z</time>
      </trkpt>
      <trkpt lat="50.38594" lon="4.6853">
        <ele>227.01</ele>
        <time>2016-10-08T07:44:46Z</time>
      </trkpt>
      <trkpt lat="50.38596" lon="4.68533">
        <ele>227.01</ele>
        <time>2016-10-08T07:44:54Z</time>
      </trkpt>
      <trkpt lat="50.38598" lon="4.6854">
        <ele>227.01</ele>
        <time>2016-10-08T07:44:58Z</time>
      </trkpt>
      <trkpt lat="50.386" lon="4.68551">
        <ele>227.01</ele>
        <time>2016-10-08T07:45:08Z</time>
      </trkpt>
      <trkpt lat="50.386" lon="4.68554">
        <ele>227.01</ele>
        <time>2016-10-08T07:45:10Z</time>
      </trkpt>
      <trkpt lat="50.386" lon="4.68561">
        <ele>227.01</ele>
        <time>2016-10-08T07:45:13Z</time>
      </trkpt>
      <trkpt lat="50.386" lon="4.68575">
        <ele>227.01</ele>
        <time>2016-10-08T07:45:24Z</time>
      </trkpt>
      <trkpt lat="50.38599" lon="4.68579">
        <ele>227.01</ele>
        <time>2016-10-08T07:45:27Z</time>
      </trkpt>
      <trkpt lat="50.38577" lon="4.68582">
        <ele>227.01</ele>
        <time>2016-10-08T07:45:43Z</time>
      </trkpt>
      <trkpt lat="50.38572" lon="4.68583">
        <ele>227.01</ele>
        <time>2016-10-08T07:45:47Z</time>
      </trkpt>
      <trkpt lat="50.3855" lon="4.68586">
        <ele>227.49</ele>
        <time>2016-10-08T07:46:03Z</time>
      </trkpt>
      <trkpt lat="50.38533" lon="4.68597">
        <ele>227.49</ele>
        <time>2016-10-08T07:46:19Z</time>
      </trkpt>
      <trkpt lat="50.38519" lon="4.68606">
        <ele>227.97</ele>
        <time>2016-10-08T07:46:33Z</time>
      </trkpt>
      <trkpt lat="50.38509" lon="4.68617">
        <ele>227.97</ele>
        <time>2016-10-08T07:46:45Z</time>
      </trkpt>
      <trkpt lat="50.38501" lon="4.68622">
        <ele>227.97</ele>
        <time>2016-10-08T07:46:58Z</time>
      </trkpt>
      <trkpt lat="50.38489" lon="4.68629">
        <ele>228.45</ele>
        <time>2016-10-08T07:47:11Z</time>
      </trkpt>
      <trkpt lat="50.38475" lon="4.68634">
        <ele>228.45</ele>
        <time>2016-10-08T07:47:23Z</time>
      </trkpt>
      <trkpt lat="50.38453" lon="4.68642">
        <ele>228.45</ele>
        <time>2016-10-08T07:47:37Z</time>
      </trkpt>
      <trkpt lat="50.38431" lon="4.68649">
        <ele>228.45</ele>
        <time>2016-10-08T07:47:53Z</time>
      </trkpt>
      <trkpt lat="50.38427" lon="4.68651">
        <ele>227.49</ele>
        <time>2016-10-08T07:47:57Z</time>
      </trkpt>
      <trkpt lat="50.38409" lon="4.68657">
        <ele>227.49</ele>
        <time>2016-10-08T07:48:13Z</time>
      </trkpt>
      <trkpt lat="50.38388" lon="4.68666">
        <ele>228.45</ele>
        <time>2016-10-08T07:48:30Z</time>
      </trkpt>
      <trkpt lat="50.38366" lon="4.68671">
        <ele>228.93</ele>
        <time>2016-10-08T07:48:45Z</time>
      </trkpt>
      <trkpt lat="50.38346" lon="4.6868">
        <ele>230.85</ele>
        <time>2016-10-08T07:48:59Z</time>
      </trkpt>
      <trkpt lat="50.38325" lon="4.6869">
        <ele>231.81</ele>
        <time>2016-10-08T07:49:14Z</time>
      </trkpt>
      <trkpt lat="50.38304" lon="4.68699">
        <ele>232.3</ele>
        <time>2016-10-08T07:49:29Z</time>
      </trkpt>
      <trkpt lat="50.38283" lon="4.6871">
        <ele>233.26</ele>
        <time>2016-10-08T07:49:45Z</time>
      </trkpt>
      <trkpt lat="50.38263" lon="4.68722">
        <ele>233.74</ele>
        <time>2016-10-08T07:50:01Z</time>
      </trkpt>
      <trkpt lat="50.3824" lon="4.68743">
        <ele>235.18</ele>
        <time>2016-10-08T07:50:19Z</time>
      </trkpt>
      <trkpt lat="50.38224" lon="4.68762">
        <ele>235.66</ele>
        <time>2016-10-08T07:50:34Z</time>
      </trkpt>
      <trkpt lat="50.38203" lon="4.68783">
        <ele>236.62</ele>
        <time>2016-10-08T07:50:53Z</time>
      </trkpt>
      <trkpt lat="50.38176" lon="4.68799">
        <ele>237.1</ele>
        <time>2016-10-08T07:51:13Z</time>
      </trkpt>
      <trkpt lat="50.3816" lon="4.68808">
        <ele>238.06</ele>
        <time>2016-10-08T07:51:28Z</time>
      </trkpt>
      <trkpt lat="50.38138" lon="4.68817">
        <ele>239.02</ele>
        <time>2016-10-08T07:51:46Z</time>
      </trkpt>
      <trkpt lat="50.38114" lon="4.68825">
        <ele>239.99</ele>
        <time>2016-10-08T07:52:03Z</time>
      </trkpt>
      <trkpt lat="50.38091" lon="4.68834">
        <ele>240.47</ele>
        <time>2016-10-08T07:52:21Z</time>
      </trkpt>
      <trkpt lat="50.38069" lon="4.68843">
        <ele>240.95</ele>
        <time>2016-10-08T07:52:38Z</time>
      </trkpt>
      <trkpt lat="50.38049" lon="4.68851">
        <ele>241.91</ele>
        <time>2016-10-08T07:52:55Z</time>
      </trkpt>
      <trkpt lat="50.38024" lon="4.68862">
        <ele>242.87</ele>
        <time>2016-10-08T07:53:14Z</time>
      </trkpt>
      <trkpt lat="50.38" lon="4.68873">
        <ele>243.35</ele>
        <time>2016-10-08T07:53:35Z</time>
      </trkpt>
      <trkpt lat="50.37975" lon="4.68881">
        <ele>244.31</ele>
        <time>2016-10-08T07:53:53Z</time>
      </trkpt>
      <trkpt lat="50.37946" lon="4.68893">
        <ele>245.75</ele>
        <time>2016-10-08T07:54:14Z</time>
      </trkpt>
      <trkpt lat="50.37928" lon="4.68903">
        <ele>245.75</ele>
        <time>2016-10-08T07:54:30Z</time>
      </trkpt>
      <trkpt lat="50.37905" lon="4.6891">
        <ele>246.72</ele>
        <time>2016-10-08T07:54:48Z</time>
      </trkpt>
      <trkpt lat="50.37879" lon="4.6892">
        <ele>248.64</ele>
        <time>2016-10-08T07:55:07Z</time>
      </trkpt>
      <trkpt lat="50.37856" lon="4.68933">
        <ele>249.6</ele>
        <time>2016-10-08T07:55:24Z</time>
      </trkpt>
      <trkpt lat="50.37837" lon="4.68943">
        <ele>250.08</ele>
        <time>2016-10-08T07:55:41Z</time>
      </trkpt>
      <trkpt lat="50.37814" lon="4.68958">
        <ele>251.04</ele>
        <time>2016-10-08T07:55:59Z</time>
      </trkpt>
      <trkpt lat="50.378" lon="4.68968">
        <ele>252</ele>
        <time>2016-10-08T07:56:11Z</time>
      </trkpt>
      <trkpt lat="50.37778" lon="4.68985">
        <ele>252.48</ele>
        <time>2016-10-08T07:56:29Z</time>
      </trkpt>
      <trkpt lat="50.37756" lon="4.69003">
        <ele>252.96</ele>
        <time>2016-10-08T07:56:48Z</time>
      </trkpt>
      <trkpt lat="50.37736" lon="4.69015">
        <ele>252.96</ele>
        <time>2016-10-08T07:57:05Z</time>
      </trkpt>
      <trkpt lat="50.37717" lon="4.69029">
        <ele>252.96</ele>
        <time>2016-10-08T07:57:22Z</time>
      </trkpt>
      <trkpt lat="50.37692" lon="4.69049">
        <ele>252</ele>
        <time>2016-10-08T07:57:43Z</time>
      </trkpt>
      <trkpt lat="50.37672" lon="4.69065">
        <ele>252</ele>
        <time>2016-10-08T07:58:01Z</time>
      </trkpt>
      <trkpt lat="50.37652" lon="4.69081">
        <ele>251.04</ele>
        <time>2016-10-08T07:58:19Z</time>
      </trkpt>
      <trkpt lat="50.37629" lon="4.69101">
        <ele>250.56</ele>
        <time>2016-10-08T07:58:39Z</time>
      </trkpt>
      <trkpt lat="50.37613" lon="4.69117">
        <ele>249.6</ele>
        <time>2016-10-08T07:58:55Z</time>
      </trkpt>
      <trkpt lat="50.37588" lon="4.69135">
        <ele>249.12</ele>
        <time>2016-10-08T07:59:14Z</time>
      </trkpt>
      <trkpt lat="50.37561" lon="4.69149">
        <ele>248.64</ele>
        <time>2016-10-08T07:59:34Z</time>
      </trkpt>
      <trkpt lat="50.37539" lon="4.6916">
        <ele>247.2</ele>
        <time>2016-10-08T07:59:52Z</time>
      </trkpt>
      <trkpt lat="50.37516" lon="4.69171">
        <ele>247.2</ele>
        <time>2016-10-08T08:00:10Z</time>
      </trkpt>
      <trkpt lat="50.37494" lon="4.69186">
        <ele>245.75</ele>
        <time>2016-10-08T08:00:28Z</time>
      </trkpt>
      <trkpt lat="50.3747" lon="4.69206">
        <ele>245.27</ele>
        <time>2016-10-08T08:00:47Z</time>
      </trkpt>
      <trkpt lat="50.3745" lon="4.69221">
        <ele>244.31</ele>
        <time>2016-10-08T08:01:05Z</time>
      </trkpt>
      <trkpt lat="50.37432" lon="4.69237">
        <ele>243.83</ele>
        <time>2016-10-08T08:01:22Z</time>
      </trkpt>
      <trkpt lat="50.37411" lon="4.69247">
        <ele>243.35</ele>
        <time>2016-10-08T08:01:38Z</time>
      </trkpt>
      <trkpt lat="50.37393" lon="4.69261">
        <ele>242.39</ele>
        <time>2016-10-08T08:01:54Z</time>
      </trkpt>
      <trkpt lat="50.37373" lon="4.69284">
        <ele>241.43</ele>
        <time>2016-10-08T08:02:11Z</time>
      </trkpt>
      <trkpt lat="50.37355" lon="4.69304">
        <ele>240.47</ele>
        <time>2016-10-08T08:02:27Z</time>
      </trkpt>
      <trkpt lat="50.37334" lon="4.69328">
        <ele>239.02</ele>
        <time>2016-10-08T08:02:45Z</time>
      </trkpt>
      <trkpt lat="50.37318" lon="4.69347">
        <ele>238.06</ele>
        <time>2016-10-08T08:03:03Z</time>
      </trkpt>
      <trkpt lat="50.37297" lon="4.69369">
        <ele>237.1</ele>
        <time>2016-10-08T08:03:21Z</time>
      </trkpt>
      <trkpt lat="50.37279" lon="4.69389">
        <ele>236.62</ele>
        <time>2016-10-08T08:03:37Z</time>
      </trkpt>
      <trkpt lat="50.37262" lon="4.69407">
        <ele>236.14</ele>
        <time>2016-10-08T08:03:52Z</time>
      </trkpt>
      <trkpt lat="50.37247" lon="4.69425">
        <ele>235.66</ele>
        <time>2016-10-08T08:04:07Z</time>
      </trkpt>
      <trkpt lat="50.37243" lon="4.69431">
        <ele>235.18</ele>
        <time>2016-10-08T08:04:11Z</time>
      </trkpt>
      <trkpt lat="50.37237" lon="4.69435">
        <ele>235.18</ele>
        <time>2016-10-08T08:04:16Z</time>
      </trkpt>
      <trkpt lat="50.37227" lon="4.69455">
        <ele>235.18</ele>
        <time>2016-10-08T08:04:27Z</time>
      </trkpt>
      <trkpt lat="50.37226" lon="4.69464">
        <ele>235.18</ele>
        <time>2016-10-08T08:04:31Z</time>
      </trkpt>
      <trkpt lat="50.37225" lon="4.69504">
        <ele>234.7</ele>
        <time>2016-10-08T08:04:48Z</time>
      </trkpt>
      <trkpt lat="50.37223" lon="4.69532">
        <ele>234.22</ele>
        <time>2016-10-08T08:05:02Z</time>
      </trkpt>
      <trkpt lat="50.37221" lon="4.69545">
        <ele>234.22</ele>
        <time>2016-10-08T08:05:09Z</time>
      </trkpt>
      <trkpt lat="50.37215" lon="4.69552">
        <ele>234.22</ele>
        <time>2016-10-08T08:05:14Z</time>
      </trkpt>
      <trkpt lat="50.37194" lon="4.69554">
        <ele>233.74</ele>
        <time>2016-10-08T08:05:31Z</time>
      </trkpt>
      <trkpt lat="50.37178" lon="4.69555">
        <ele>233.74</ele>
        <time>2016-10-08T08:05:45Z</time>
      </trkpt>
      <trkpt lat="50.37157" lon="4.69559">
        <ele>232.78</ele>
        <time>2016-10-08T08:06:01Z</time>
      </trkpt>
      <trkpt lat="50.37131" lon="4.6956">
        <ele>232.78</ele>
        <time>2016-10-08T08:06:17Z</time>
      </trkpt>
      <trkpt lat="50.37114" lon="4.69567">
        <ele>232.78</ele>
        <time>2016-10-08T08:06:32Z</time>
      </trkpt>
      <trkpt lat="50.37107" lon="4.69568">
        <ele>232.78</ele>
        <time>2016-10-08T08:06:37Z</time>
      </trkpt>
      <trkpt lat="50.37084" lon="4.69571">
        <ele>234.22</ele>
        <time>2016-10-08T08:06:53Z</time>
      </trkpt>
      <trkpt lat="50.37072" lon="4.69571">
        <ele>234.22</ele>
        <time>2016-10-08T08:07:01Z</time>
      </trkpt>
      <trkpt lat="50.37045" lon="4.69576">
        <ele>235.18</ele>
        <time>2016-10-08T08:07:21Z</time>
      </trkpt>
      <trkpt lat="50.37022" lon="4.69579">
        <ele>235.66</ele>
        <time>2016-10-08T08:07:37Z</time>
      </trkpt>
      <trkpt lat="50.37002" lon="4.69583">
        <ele>236.14</ele>
        <time>2016-10-08T08:07:53Z</time>
      </trkpt>
      <trkpt lat="50.3698" lon="4.69586">
        <ele>237.1</ele>
        <time>2016-10-08T08:08:09Z</time>
      </trkpt>
      <trkpt lat="50.36958" lon="4.6959">
        <ele>238.06</ele>
        <time>2016-10-08T08:08:26Z</time>
      </trkpt>
      <trkpt lat="50.36937" lon="4.69593">
        <ele>239.99</ele>
        <time>2016-10-08T08:08:45Z</time>
      </trkpt>
      <trkpt lat="50.3692" lon="4.69599">
        <ele>240.95</ele>
        <time>2016-10-08T08:09:00Z</time>
      </trkpt>
      <trkpt lat="50.36902" lon="4.69608">
        <ele>242.39</ele>
        <time>2016-10-08T08:09:16Z</time>
      </trkpt>
      <trkpt lat="50.36883" lon="4.69621">
        <ele>243.83</ele>
        <time>2016-10-08T08:09:32Z</time>
      </trkpt>
      <trkpt lat="50.36863" lon="4.69639">
        <ele>245.75</ele>
        <time>2016-10-08T08:09:50Z</time>
      </trkpt>
      <trkpt lat="50.36844" lon="4.69662">
        <ele>247.68</ele>
        <time>2016-10-08T08:10:08Z</time>
      </trkpt>
      <trkpt lat="50.36825" lon="4.69685">
        <ele>250.08</ele>
        <time>2016-10-08T08:10:26Z</time>
      </trkpt>
      <trkpt lat="50.36808" lon="4.69706">
        <ele>251.52</ele>
        <time>2016-10-08T08:10:43Z</time>
      </trkpt>
      <trkpt lat="50.368" lon="4.69716">
        <ele>252.96</ele>
        <time>2016-10-08T08:10:52Z</time>
      </trkpt>
      <trkpt lat="50.36795" lon="4.69716">
        <ele>253.44</ele>
        <time>2016-10-08T08:11:09Z</time>
      </trkpt>
      <trkpt lat="50.36795" lon="4.69715">
        <ele>253.44</ele>
        <time>2016-10-08T08:11:11Z</time>
      </trkpt>
      <trkpt lat="50.36785" lon="4.69686">
        <ele>253.93</ele>
        <time>2016-10-08T08:11:27Z</time>
      </trkpt>
      <trkpt lat="50.36779" lon="4.69662">
        <ele>254.41</ele>
        <time>2016-10-08T08:11:41Z</time>
      </trkpt>
      <trkpt lat="50.36779" lon="4.69661">
        <ele>254.41</ele>
        <time>2016-10-08T08:11:42Z</time>
      </trkpt>
      <trkpt lat="50.36768" lon="4.69638">
        <ele>254.41</ele>
        <time>2016-10-08T08:11:56Z</time>
      </trkpt>
      <trkpt lat="50.36756" lon="4.6962">
        <ele>254.89</ele>
        <time>2016-10-08T08:12:10Z</time>
      </trkpt>
      <trkpt lat="50.36747" lon="4.69604">
        <ele>255.37</ele>
        <time>2016-10-08T08:12:21Z</time>
      </trkpt>
      <trkpt lat="50.36739" lon="4.69582">
        <ele>255.85</ele>
        <time>2016-10-08T08:12:34Z</time>
      </trkpt>
      <trkpt lat="50.36733" lon="4.69552">
        <ele>256.33</ele>
        <time>2016-10-08T08:12:48Z</time>
      </trkpt>
      <trkpt lat="50.36728" lon="4.69528">
        <ele>256.33</ele>
        <time>2016-10-08T08:13:01Z</time>
      </trkpt>
      <trkpt lat="50.3672" lon="4.695">
        <ele>256.33</ele>
        <time>2016-10-08T08:13:16Z</time>
      </trkpt>
      <trkpt lat="50.36713" lon="4.6947">
        <ele>256.33</ele>
        <time>2016-10-08T08:13:31Z</time>
      </trkpt>
      <trkpt lat="50.36706" lon="4.6944">
        <ele>256.33</ele>
        <time>2016-10-08T08:13:46Z</time>
      </trkpt>
      <trkpt lat="50.36698" lon="4.69402">
        <ele>256.33</ele>
        <time>2016-10-08T08:14:04Z</time>
      </trkpt>
      <trkpt lat="50.3669" lon="4.6937">
        <ele>256.81</ele>
        <time>2016-10-08T08:14:21Z</time>
      </trkpt>
      <trkpt lat="50.36679" lon="4.69336">
        <ele>257.29</ele>
        <time>2016-10-08T08:14:39Z</time>
      </trkpt>
      <trkpt lat="50.36672" lon="4.69306">
        <ele>257.29</ele>
        <time>2016-10-08T08:14:54Z</time>
      </trkpt>
      <trkpt lat="50.36664" lon="4.69272">
        <ele>258.25</ele>
        <time>2016-10-08T08:15:12Z</time>
      </trkpt>
      <trkpt lat="50.36658" lon="4.6924">
        <ele>258.25</ele>
        <time>2016-10-08T08:15:27Z</time>
      </trkpt>
      <trkpt lat="50.36654" lon="4.69213">
        <ele>258.25</ele>
        <time>2016-10-08T08:15:41Z</time>
      </trkpt>
      <trkpt lat="50.36649" lon="4.69179">
        <ele>258.73</ele>
        <time>2016-10-08T08:15:57Z</time>
      </trkpt>
      <trkpt lat="50.36642" lon="4.6915">
        <ele>258.73</ele>
        <time>2016-10-08T08:16:12Z</time>
      </trkpt>
      <trkpt lat="50.36642" lon="4.69139">
        <ele>259.21</ele>
        <time>2016-10-08T08:16:17Z</time>
      </trkpt>
      <trkpt lat="50.36637" lon="4.69117">
        <ele>259.21</ele>
        <time>2016-10-08T08:16:28Z</time>
      </trkpt>
      <trkpt lat="50.36635" lon="4.69091">
        <ele>259.21</ele>
        <time>2016-10-08T08:16:42Z</time>
      </trkpt>
      <trkpt lat="50.36634" lon="4.69088">
        <ele>259.21</ele>
        <time>2016-10-08T08:16:44Z</time>
      </trkpt>
      <trkpt lat="50.36626" lon="4.69062">
        <ele>259.69</ele>
        <time>2016-10-08T08:16:59Z</time>
      </trkpt>
      <trkpt lat="50.36623" lon="4.69039">
        <ele>259.69</ele>
        <time>2016-10-08T08:17:13Z</time>
      </trkpt>
      <trkpt lat="50.3662" lon="4.69026">
        <ele>259.69</ele>
        <time>2016-10-08T08:17:19Z</time>
      </trkpt>
      <trkpt lat="50.36612" lon="4.69012">
        <ele>259.69</ele>
        <time>2016-10-08T08:17:26Z</time>
      </trkpt>
      <trkpt lat="50.36605" lon="4.68989">
        <ele>259.69</ele>
        <time>2016-10-08T08:17:38Z</time>
      </trkpt>
      <trkpt lat="50.36599" lon="4.68974">
        <ele>260.17</ele>
        <time>2016-10-08T08:17:47Z</time>
      </trkpt>
      <trkpt lat="50.36589" lon="4.68952">
        <ele>260.17</ele>
        <time>2016-10-08T08:18:00Z</time>
      </trkpt>
      <trkpt lat="50.36581" lon="4.68938">
        <ele>260.17</ele>
        <time>2016-10-08T08:18:08Z</time>
      </trkpt>
      <trkpt lat="50.3658" lon="4.68927">
        <ele>260.17</ele>
        <time>2016-10-08T08:18:15Z</time>
      </trkpt>
      <trkpt lat="50.36579" lon="4.68918">
        <ele>260.17</ele>
        <time>2016-10-08T08:18:19Z</time>
      </trkpt>
      <trkpt lat="50.36577" lon="4.6891">
        <ele>260.17</ele>
        <time>2016-10-08T08:18:23Z</time>
      </trkpt>
      <trkpt lat="50.36572" lon="4.68892">
        <ele>260.17</ele>
        <time>2016-10-08T08:18:33Z</time>
      </trkpt>
      <trkpt lat="50.36564" lon="4.68877">
        <ele>260.17</ele>
        <time>2016-10-08T08:18:42Z</time>
      </trkpt>
      <trkpt lat="50.36561" lon="4.6887">
        <ele>260.17</ele>
        <time>2016-10-08T08:18:46Z</time>
      </trkpt>
      <trkpt lat="50.36559" lon="4.68862">
        <ele>260.17</ele>
        <time>2016-10-08T08:18:51Z</time>
      </trkpt>
      <trkpt lat="50.36558" lon="4.68856">
        <ele>260.17</ele>
        <time>2016-10-08T08:18:54Z</time>
      </trkpt>
      <trkpt lat="50.36553" lon="4.68844">
        <ele>260.17</ele>
        <time>2016-10-08T08:19:00Z</time>
      </trkpt>
      <trkpt lat="50.36543" lon="4.68819">
        <ele>260.65</ele>
        <time>2016-10-08T08:19:14Z</time>
      </trkpt>
      <trkpt lat="50.36537" lon="4.68806">
        <ele>260.65</ele>
        <time>2016-10-08T08:19:22Z</time>
      </trkpt>
      <trkpt lat="50.36532" lon="4.68782">
        <ele>260.17</ele>
        <time>2016-10-08T08:19:36Z</time>
      </trkpt>
      <trkpt lat="50.36526" lon="4.68769">
        <ele>260.17</ele>
        <time>2016-10-08T08:19:43Z</time>
      </trkpt>
      <trkpt lat="50.36519" lon="4.68748">
        <ele>260.17</ele>
        <time>2016-10-08T08:19:56Z</time>
      </trkpt>
      <trkpt lat="50.36509" lon="4.68722">
        <ele>260.17</ele>
        <time>2016-10-08T08:20:10Z</time>
      </trkpt>
      <trkpt lat="50.36505" lon="4.68712">
        <ele>260.17</ele>
        <time>2016-10-08T08:20:17Z</time>
      </trkpt>
      <trkpt lat="50.36491" lon="4.68677">
        <ele>260.17</ele>
        <time>2016-10-08T08:20:30Z</time>
      </trkpt>
      <trkpt lat="50.3649" lon="4.68665">
        <ele>260.17</ele>
        <time>2016-10-08T08:20:34Z</time>
      </trkpt>
      <trkpt lat="50.36484" lon="4.68642">
        <ele>260.17</ele>
        <time>2016-10-08T08:20:48Z</time>
      </trkpt>
      <trkpt lat="50.36474" lon="4.68622">
        <ele>260.17</ele>
        <time>2016-10-08T08:21:00Z</time>
      </trkpt>
      <trkpt lat="50.36467" lon="4.68593">
        <ele>260.65</ele>
        <time>2016-10-08T08:21:14Z</time>
      </trkpt>
      <trkpt lat="50.36465" lon="4.68583">
        <ele>260.65</ele>
        <time>2016-10-08T08:21:21Z</time>
      </trkpt>
      <trkpt lat="50.36459" lon="4.68557">
        <ele>261.14</ele>
        <time>2016-10-08T08:21:36Z</time>
      </trkpt>
      <trkpt lat="50.36454" lon="4.68546">
        <ele>261.14</ele>
        <time>2016-10-08T08:21:42Z</time>
      </trkpt>
      <trkpt lat="50.3645" lon="4.6854">
        <ele>261.14</ele>
        <time>2016-10-08T08:21:47Z</time>
      </trkpt>
      <trkpt lat="50.36448" lon="4.68535">
        <ele>261.14</ele>
        <time>2016-10-08T08:21:50Z</time>
      </trkpt>
      <trkpt lat="50.36441" lon="4.68524">
        <ele>261.14</ele>
        <time>2016-10-08T08:22:02Z</time>
      </trkpt>
      <trkpt lat="50.36433" lon="4.68505">
        <ele>261.14</ele>
        <time>2016-10-08T08:22:15Z</time>
      </trkpt>
      <trkpt lat="50.36423" lon="4.68476">
        <ele>261.14</ele>
        <time>2016-10-08T08:22:30Z</time>
      </trkpt>
      <trkpt lat="50.36412" lon="4.6845">
        <ele>261.14</ele>
        <time>2016-10-08T08:22:44Z</time>
      </trkpt>
      <trkpt lat="50.36402" lon="4.6843">
        <ele>261.62</ele>
        <time>2016-10-08T08:22:56Z</time>
      </trkpt>
      <trkpt lat="50.36394" lon="4.68409">
        <ele>261.62</ele>
        <time>2016-10-08T08:23:09Z</time>
      </trkpt>
      <trkpt lat="50.36387" lon="4.68376">
        <ele>261.62</ele>
        <time>2016-10-08T08:23:21Z</time>
      </trkpt>
      <trkpt lat="50.36378" lon="4.68354">
        <ele>261.62</ele>
        <time>2016-10-08T08:23:33Z</time>
      </trkpt>
      <trkpt lat="50.36377" lon="4.68351">
        <ele>261.62</ele>
        <time>2016-10-08T08:23:34Z</time>
      </trkpt>
      <trkpt lat="50.3637" lon="4.68332">
        <ele>261.62</ele>
        <time>2016-10-08T08:23:47Z</time>
      </trkpt>
      <trkpt lat="50.36359" lon="4.68305">
        <ele>261.62</ele>
        <time>2016-10-08T08:24:00Z</time>
      </trkpt>
      <trkpt lat="50.36356" lon="4.6828">
        <ele>261.62</ele>
        <time>2016-10-08T08:24:11Z</time>
      </trkpt>
      <trkpt lat="50.36352" lon="4.68268">
        <ele>261.62</ele>
        <time>2016-10-08T08:24:18Z</time>
      </trkpt>
      <trkpt lat="50.3634" lon="4.68242">
        <ele>262.1</ele>
        <time>2016-10-08T08:24:32Z</time>
      </trkpt>
      <trkpt lat="50.36332" lon="4.68216">
        <ele>262.1</ele>
        <time>2016-10-08T08:24:47Z</time>
      </trkpt>
      <trkpt lat="50.36326" lon="4.68199">
        <ele>262.1</ele>
        <time>2016-10-08T08:24:58Z</time>
      </trkpt>
      <trkpt lat="50.36315" lon="4.68171">
        <ele>262.1</ele>
        <time>2016-10-08T08:25:15Z</time>
      </trkpt>
      <trkpt lat="50.36306" lon="4.68147">
        <ele>262.58</ele>
        <time>2016-10-08T08:25:27Z</time>
      </trkpt>
      <trkpt lat="50.36299" lon="4.68126">
        <ele>262.58</ele>
        <time>2016-10-08T08:25:38Z</time>
      </trkpt>
      <trkpt lat="50.36295" lon="4.6812">
        <ele>262.58</ele>
        <time>2016-10-08T08:25:43Z</time>
      </trkpt>
      <trkpt lat="50.36289" lon="4.68101">
        <ele>262.58</ele>
        <time>2016-10-08T08:25:54Z</time>
      </trkpt>
      <trkpt lat="50.36285" lon="4.68091">
        <ele>262.58</ele>
        <time>2016-10-08T08:26:00Z</time>
      </trkpt>
      <trkpt lat="50.36279" lon="4.68075">
        <ele>262.58</ele>
        <time>2016-10-08T08:26:10Z</time>
      </trkpt>
      <trkpt lat="50.36272" lon="4.6806">
        <ele>262.58</ele>
        <time>2016-10-08T08:26:17Z</time>
      </trkpt>
      <trkpt lat="50.36263" lon="4.68026">
        <ele>262.58</ele>
        <time>2016-10-08T08:26:33Z</time>
      </trkpt>
      <trkpt lat="50.36257" lon="4.68009">
        <ele>262.58</ele>
        <time>2016-10-08T08:26:43Z</time>
      </trkpt>
      <trkpt lat="50.36247" lon="4.67988">
        <ele>263.06</ele>
        <time>2016-10-08T08:26:56Z</time>
      </trkpt>
      <trkpt lat="50.36234" lon="4.67959">
        <ele>263.06</ele>
        <time>2016-10-08T08:27:11Z</time>
      </trkpt>
      <trkpt lat="50.3622" lon="4.67931">
        <ele>263.06</ele>
        <time>2016-10-08T08:27:23Z</time>
      </trkpt>
      <trkpt lat="50.36212" lon="4.679">
        <ele>263.06</ele>
        <time>2016-10-08T08:27:37Z</time>
      </trkpt>
      <trkpt lat="50.36209" lon="4.67895">
        <ele>263.06</ele>
        <time>2016-10-08T08:27:40Z</time>
      </trkpt>
      <trkpt lat="50.362" lon="4.67871">
        <ele>263.06</ele>
        <time>2016-10-08T08:27:54Z</time>
      </trkpt>
      <trkpt lat="50.36194" lon="4.67848">
        <ele>263.06</ele>
        <time>2016-10-08T08:28:06Z</time>
      </trkpt>
      <trkpt lat="50.36195" lon="4.67841">
        <ele>262.1</ele>
        <time>2016-10-08T08:28:10Z</time>
      </trkpt>
      <trkpt lat="50.36203" lon="4.67813">
        <ele>260.17</ele>
        <time>2016-10-08T08:28:26Z</time>
      </trkpt>
      <trkpt lat="50.36203" lon="4.67811">
        <ele>259.21</ele>
        <time>2016-10-08T08:28:27Z</time>
      </trkpt>
      <trkpt lat="50.36208" lon="4.67784">
        <ele>257.77</ele>
        <time>2016-10-08T08:28:43Z</time>
      </trkpt>
      <trkpt lat="50.36211" lon="4.67768">
        <ele>256.81</ele>
        <time>2016-10-08T08:28:52Z</time>
      </trkpt>
      <trkpt lat="50.36218" lon="4.67744">
        <ele>254.41</ele>
        <time>2016-10-08T08:29:06Z</time>
      </trkpt>
      <trkpt lat="50.36222" lon="4.67736">
        <ele>254.41</ele>
        <time>2016-10-08T08:29:11Z</time>
      </trkpt>
      <trkpt lat="50.36225" lon="4.67721">
        <ele>253.44</ele>
        <time>2016-10-08T08:29:18Z</time>
      </trkpt>
      <trkpt lat="50.36224" lon="4.67696">
        <ele>251.52</ele>
        <time>2016-10-08T08:29:32Z</time>
      </trkpt>
      <trkpt lat="50.3622" lon="4.67669">
        <ele>250.56</ele>
        <time>2016-10-08T08:29:46Z</time>
      </trkpt>
      <trkpt lat="50.36215" lon="4.67647">
        <ele>249.6</ele>
        <time>2016-10-08T08:30:01Z</time>
      </trkpt>
      <trkpt lat="50.3621" lon="4.67627">
        <ele>248.64</ele>
        <time>2016-10-08T08:30:13Z</time>
      </trkpt>
      <trkpt lat="50.36204" lon="4.67601">
        <ele>246.72</ele>
        <time>2016-10-08T08:30:26Z</time>
      </trkpt>
      <trkpt lat="50.36197" lon="4.67578">
        <ele>245.75</ele>
        <time>2016-10-08T08:30:40Z</time>
      </trkpt>
      <trkpt lat="50.36194" lon="4.67555">
        <ele>244.31</ele>
        <time>2016-10-08T08:30:52Z</time>
      </trkpt>
      <trkpt lat="50.36194" lon="4.67538">
        <ele>243.35</ele>
        <time>2016-10-08T08:31:02Z</time>
      </trkpt>
      <trkpt lat="50.36195" lon="4.67533">
        <ele>243.35</ele>
        <time>2016-10-08T08:31:05Z</time>
      </trkpt>
      <trkpt lat="50.36192" lon="4.67508">
        <ele>241.91</ele>
        <time>2016-10-08T08:31:19Z</time>
      </trkpt>
      <trkpt lat="50.36191" lon="4.67488">
        <ele>240.95</ele>
        <time>2016-10-08T08:31:32Z</time>
      </trkpt>
      <trkpt lat="50.3619" lon="4.67483">
        <ele>240.47</ele>
        <time>2016-10-08T08:31:40Z</time>
      </trkpt>
      <trkpt lat="50.36192" lon="4.67478">
        <ele>240.47</ele>
        <time>2016-10-08T08:31:43Z</time>
      </trkpt>
      <trkpt lat="50.36193" lon="4.6747">
        <ele>239.99</ele>
        <time>2016-10-08T08:31:47Z</time>
      </trkpt>
      <trkpt lat="50.36194" lon="4.67459">
        <ele>239.02</ele>
        <time>2016-10-08T08:31:53Z</time>
      </trkpt>
      <trkpt lat="50.36197" lon="4.6744">
        <ele>237.58</ele>
        <time>2016-10-08T08:32:05Z</time>
      </trkpt>
      <trkpt lat="50.36206" lon="4.67424">
        <ele>237.1</ele>
        <time>2016-10-08T08:32:14Z</time>
      </trkpt>
      <trkpt lat="50.36207" lon="4.6742">
        <ele>237.1</ele>
        <time>2016-10-08T08:32:16Z</time>
      </trkpt>
      <trkpt lat="50.36218" lon="4.67395">
        <ele>236.62</ele>
        <time>2016-10-08T08:32:29Z</time>
      </trkpt>
      <trkpt lat="50.36219" lon="4.67394">
        <ele>236.62</ele>
        <time>2016-10-08T08:32:30Z</time>
      </trkpt>
      <trkpt lat="50.36224" lon="4.67394">
        <ele>236.62</ele>
        <time>2016-10-08T08:32:39Z</time>
      </trkpt>
      <trkpt lat="50.36246" lon="4.674">
        <ele>236.14</ele>
        <time>2016-10-08T08:32:57Z</time>
      </trkpt>
      <trkpt lat="50.36268" lon="4.67405">
        <ele>236.14</ele>
        <time>2016-10-08T08:33:13Z</time>
      </trkpt>
      <trkpt lat="50.36288" lon="4.67413">
        <ele>236.14</ele>
        <time>2016-10-08T08:33:29Z</time>
      </trkpt>
      <trkpt lat="50.36303" lon="4.67419">
        <ele>236.14</ele>
        <time>2016-10-08T08:33:41Z</time>
      </trkpt>
      <trkpt lat="50.36312" lon="4.67425">
        <ele>236.14</ele>
        <time>2016-10-08T08:33:47Z</time>
      </trkpt>
      <trkpt lat="50.36335" lon="4.67434">
        <ele>236.14</ele>
        <time>2016-10-08T08:34:04Z</time>
      </trkpt>
      <trkpt lat="50.36345" lon="4.67441">
        <ele>235.66</ele>
        <time>2016-10-08T08:34:11Z</time>
      </trkpt>
      <trkpt lat="50.36368" lon="4.67455">
        <ele>235.66</ele>
        <time>2016-10-08T08:34:27Z</time>
      </trkpt>
      <trkpt lat="50.36381" lon="4.67467">
        <ele>235.66</ele>
        <time>2016-10-08T08:34:39Z</time>
      </trkpt>
      <trkpt lat="50.36401" lon="4.67482">
        <ele>235.66</ele>
        <time>2016-10-08T08:34:55Z</time>
      </trkpt>
      <trkpt lat="50.36419" lon="4.67499">
        <ele>235.66</ele>
        <time>2016-10-08T08:35:12Z</time>
      </trkpt>
      <trkpt lat="50.36434" lon="4.67515">
        <ele>235.66</ele>
        <time>2016-10-08T08:35:25Z</time>
      </trkpt>
      <trkpt lat="50.36455" lon="4.67539">
        <ele>235.66</ele>
        <time>2016-10-08T08:35:41Z</time>
      </trkpt>
      <trkpt lat="50.36471" lon="4.6756">
        <ele>235.66</ele>
        <time>2016-10-08T08:35:55Z</time>
      </trkpt>
      <trkpt lat="50.36488" lon="4.67582">
        <ele>235.66</ele>
        <time>2016-10-08T08:36:10Z</time>
      </trkpt>
      <trkpt lat="50.36507" lon="4.67606">
        <ele>235.66</ele>
        <time>2016-10-08T08:36:26Z</time>
      </trkpt>
      <trkpt lat="50.36517" lon="4.6762">
        <ele>235.66</ele>
        <time>2016-10-08T08:36:35Z</time>
      </trkpt>
      <trkpt lat="50.36539" lon="4.67646">
        <ele>235.18</ele>
        <time>2016-10-08T08:36:53Z</time>
      </trkpt>
      <trkpt lat="50.36557" lon="4.6767">
        <ele>235.18</ele>
        <time>2016-10-08T08:37:09Z</time>
      </trkpt>
      <trkpt lat="50.36573" lon="4.6769">
        <ele>235.18</ele>
        <time>2016-10-08T08:37:24Z</time>
      </trkpt>
      <trkpt lat="50.36589" lon="4.67711">
        <ele>235.18</ele>
        <time>2016-10-08T08:37:39Z</time>
      </trkpt>
      <trkpt lat="50.3661" lon="4.67736">
        <ele>235.18</ele>
        <time>2016-10-08T08:37:56Z</time>
      </trkpt>
      <trkpt lat="50.36625" lon="4.67757">
        <ele>235.18</ele>
        <time>2016-10-08T08:38:09Z</time>
      </trkpt>
      <trkpt lat="50.3664" lon="4.67779">
        <ele>235.18</ele>
        <time>2016-10-08T08:38:23Z</time>
      </trkpt>
      <trkpt lat="50.36656" lon="4.67797">
        <ele>235.18</ele>
        <time>2016-10-08T08:38:39Z</time>
      </trkpt>
      <trkpt lat="50.3667" lon="4.67816">
        <ele>235.18</ele>
        <time>2016-10-08T08:38:53Z</time>
      </trkpt>
      <trkpt lat="50.3668" lon="4.67831">
        <ele>235.18</ele>
        <time>2016-10-08T08:39:03Z</time>
      </trkpt>
      <trkpt lat="50.36692" lon="4.67844">
        <ele>235.18</ele>
        <time>2016-10-08T08:39:12Z</time>
      </trkpt>
      <trkpt lat="50.36698" lon="4.67851">
        <ele>235.18</ele>
        <time>2016-10-08T08:39:17Z</time>
      </trkpt>
      <trkpt lat="50.36712" lon="4.6787">
        <ele>235.18</ele>
        <time>2016-10-08T08:39:31Z</time>
      </trkpt>
      <trkpt lat="50.3673" lon="4.67894">
        <ele>235.18</ele>
        <time>2016-10-08T08:39:46Z</time>
      </trkpt>
      <trkpt lat="50.36747" lon="4.67916">
        <ele>235.18</ele>
        <time>2016-10-08T08:40:02Z</time>
      </trkpt>
      <trkpt lat="50.36761" lon="4.67931">
        <ele>235.18</ele>
        <time>2016-10-08T08:40:16Z</time>
      </trkpt>
      <trkpt lat="50.36779" lon="4.67951">
        <ele>235.18</ele>
        <time>2016-10-08T08:40:32Z</time>
      </trkpt>
      <trkpt lat="50.36796" lon="4.67969">
        <ele>235.18</ele>
        <time>2016-10-08T08:40:48Z</time>
      </trkpt>
      <trkpt lat="50.36816" lon="4.6799">
        <ele>235.18</ele>
        <time>2016-10-08T08:41:04Z</time>
      </trkpt>
      <trkpt lat="50.36818" lon="4.67992">
        <ele>235.18</ele>
        <time>2016-10-08T08:41:06Z</time>
      </trkpt>
      <trkpt lat="50.36844" lon="4.68018">
        <ele>235.18</ele>
        <time>2016-10-08T08:41:25Z</time>
      </trkpt>
      <trkpt lat="50.3686" lon="4.68029">
        <ele>235.18</ele>
        <time>2016-10-08T08:41:41Z</time>
      </trkpt>
      <trkpt lat="50.36879" lon="4.68046">
        <ele>235.18</ele>
        <time>2016-10-08T08:41:55Z</time>
      </trkpt>
      <trkpt lat="50.36888" lon="4.68054">
        <ele>235.18</ele>
        <time>2016-10-08T08:41:59Z</time>
      </trkpt>
      <trkpt lat="50.36906" lon="4.68064">
        <ele>235.18</ele>
        <time>2016-10-08T08:42:13Z</time>
      </trkpt>
      <trkpt lat="50.3691" lon="4.68067">
        <ele>235.18</ele>
        <time>2016-10-08T08:42:17Z</time>
      </trkpt>
      <trkpt lat="50.36922" lon="4.68071">
        <ele>235.18</ele>
        <time>2016-10-08T08:42:29Z</time>
      </trkpt>
      <trkpt lat="50.36942" lon="4.68084">
        <ele>235.18</ele>
        <time>2016-10-08T08:42:44Z</time>
      </trkpt>
      <trkpt lat="50.36964" lon="4.68093">
        <ele>235.18</ele>
        <time>2016-10-08T08:43:01Z</time>
      </trkpt>
      <trkpt lat="50.36973" lon="4.68098">
        <ele>235.18</ele>
        <time>2016-10-08T08:43:11Z</time>
      </trkpt>
      <trkpt lat="50.36995" lon="4.68105">
        <ele>235.18</ele>
        <time>2016-10-08T08:43:27Z</time>
      </trkpt>
      <trkpt lat="50.37015" lon="4.68111">
        <ele>235.18</ele>
        <time>2016-10-08T08:43:41Z</time>
      </trkpt>
      <trkpt lat="50.37034" lon="4.68117">
        <ele>235.18</ele>
        <time>2016-10-08T08:43:54Z</time>
      </trkpt>
      <trkpt lat="50.37055" lon="4.68119">
        <ele>234.7</ele>
        <time>2016-10-08T08:44:09Z</time>
      </trkpt>
      <trkpt lat="50.37056" lon="4.6812">
        <ele>234.7</ele>
        <time>2016-10-08T08:44:12Z</time>
      </trkpt>
      <trkpt lat="50.3707" lon="4.68122">
        <ele>234.7</ele>
        <time>2016-10-08T08:44:24Z</time>
      </trkpt>
      <trkpt lat="50.37084" lon="4.68123">
        <ele>234.22</ele>
        <time>2016-10-08T08:44:35Z</time>
      </trkpt>
      <trkpt lat="50.3709" lon="4.68131">
        <ele>234.22</ele>
        <time>2016-10-08T08:44:44Z</time>
      </trkpt>
      <trkpt lat="50.37093" lon="4.68141">
        <ele>234.22</ele>
        <time>2016-10-08T08:44:49Z</time>
      </trkpt>
      <trkpt lat="50.37098" lon="4.68144">
        <ele>234.22</ele>
        <time>2016-10-08T08:44:53Z</time>
      </trkpt>
      <trkpt lat="50.37111" lon="4.68148">
        <ele>234.22</ele>
        <time>2016-10-08T08:45:02Z</time>
      </trkpt>
      <trkpt lat="50.37114" lon="4.6815">
        <ele>234.22</ele>
        <time>2016-10-08T08:45:05Z</time>
      </trkpt>
      <trkpt lat="50.37137" lon="4.68161">
        <ele>234.22</ele>
        <time>2016-10-08T08:45:20Z</time>
      </trkpt>
      <trkpt lat="50.37157" lon="4.68181">
        <ele>234.22</ele>
        <time>2016-10-08T08:45:36Z</time>
      </trkpt>
      <trkpt lat="50.3718" lon="4.68199">
        <ele>233.26</ele>
        <time>2016-10-08T08:45:53Z</time>
      </trkpt>
      <trkpt lat="50.37198" lon="4.68215">
        <ele>232.3</ele>
        <time>2016-10-08T08:46:08Z</time>
      </trkpt>
      <trkpt lat="50.37211" lon="4.68228">
        <ele>231.81</ele>
        <time>2016-10-08T08:46:23Z</time>
      </trkpt>
      <trkpt lat="50.37214" lon="4.68234">
        <ele>231.81</ele>
        <time>2016-10-08T08:46:27Z</time>
      </trkpt>
      <trkpt lat="50.37233" lon="4.68285">
        <ele>231.81</ele>
        <time>2016-10-08T08:46:48Z</time>
      </trkpt>
      <trkpt lat="50.37249" lon="4.68318">
        <ele>232.3</ele>
        <time>2016-10-08T08:47:07Z</time>
      </trkpt>
      <trkpt lat="50.37262" lon="4.68342">
        <ele>232.3</ele>
        <time>2016-10-08T08:47:21Z</time>
      </trkpt>
      <trkpt lat="50.37274" lon="4.68366">
        <ele>232.3</ele>
        <time>2016-10-08T08:47:37Z</time>
      </trkpt>
      <trkpt lat="50.37291" lon="4.68394">
        <ele>232.3</ele>
        <time>2016-10-08T08:47:55Z</time>
      </trkpt>
      <trkpt lat="50.37306" lon="4.68417">
        <ele>232.3</ele>
        <time>2016-10-08T08:48:10Z</time>
      </trkpt>
      <trkpt lat="50.37317" lon="4.68422">
        <ele>232.3</ele>
        <time>2016-10-08T08:48:19Z</time>
      </trkpt>
      <trkpt lat="50.37327" lon="4.68419">
        <ele>233.26</ele>
        <time>2016-10-08T08:48:25Z</time>
      </trkpt>
      <trkpt lat="50.37352" lon="4.68407">
        <ele>234.22</ele>
        <time>2016-10-08T08:48:43Z</time>
      </trkpt>
      <trkpt lat="50.37374" lon="4.68394">
        <ele>235.18</ele>
        <time>2016-10-08T08:49:00Z</time>
      </trkpt>
      <trkpt lat="50.37396" lon="4.68383">
        <ele>235.66</ele>
        <time>2016-10-08T08:49:18Z</time>
      </trkpt>
      <trkpt lat="50.37422" lon="4.6837">
        <ele>236.14</ele>
        <time>2016-10-08T08:49:38Z</time>
      </trkpt>
      <trkpt lat="50.37444" lon="4.68358">
        <ele>236.14</ele>
        <time>2016-10-08T08:49:55Z</time>
      </trkpt>
      <trkpt lat="50.37468" lon="4.68343">
        <ele>237.58</ele>
        <time>2016-10-08T08:50:12Z</time>
      </trkpt>
      <trkpt lat="50.37493" lon="4.68331">
        <ele>239.02</ele>
        <time>2016-10-08T08:50:30Z</time>
      </trkpt>
      <trkpt lat="50.37502" lon="4.68326">
        <ele>239.99</ele>
        <time>2016-10-08T08:50:43Z</time>
      </trkpt>
      <trkpt lat="50.37503" lon="4.68325">
        <ele>239.99</ele>
        <time>2016-10-08T08:50:44Z</time>
      </trkpt>
      <trkpt lat="50.37521" lon="4.68314">
        <ele>240.47</ele>
        <time>2016-10-08T08:50:59Z</time>
      </trkpt>
      <trkpt lat="50.37541" lon="4.68308">
        <ele>241.91</ele>
        <time>2016-10-08T08:51:14Z</time>
      </trkpt>
      <trkpt lat="50.3756" lon="4.68305">
        <ele>242.87</ele>
        <time>2016-10-08T08:51:29Z</time>
      </trkpt>
      <trkpt lat="50.3758" lon="4.68305">
        <ele>243.35</ele>
        <time>2016-10-08T08:51:45Z</time>
      </trkpt>
      <trkpt lat="50.37604" lon="4.68303">
        <ele>244.31</ele>
        <time>2016-10-08T08:52:03Z</time>
      </trkpt>
      <trkpt lat="50.37627" lon="4.68304">
        <ele>244.79</ele>
        <time>2016-10-08T08:52:21Z</time>
      </trkpt>
      <trkpt lat="50.37652" lon="4.68299">
        <ele>244.79</ele>
        <time>2016-10-08T08:52:39Z</time>
      </trkpt>
      <trkpt lat="50.37675" lon="4.68297">
        <ele>245.27</ele>
        <time>2016-10-08T08:52:56Z</time>
      </trkpt>
      <trkpt lat="50.37697" lon="4.68298">
        <ele>245.27</ele>
        <time>2016-10-08T08:53:11Z</time>
      </trkpt>
      <trkpt lat="50.37717" lon="4.68298">
        <ele>245.27</ele>
        <time>2016-10-08T08:53:25Z</time>
      </trkpt>
      <trkpt lat="50.37738" lon="4.683">
        <ele>245.27</ele>
        <time>2016-10-08T08:53:40Z</time>
      </trkpt>
      <trkpt lat="50.37761" lon="4.68305">
        <ele>245.27</ele>
        <time>2016-10-08T08:53:58Z</time>
      </trkpt>
      <trkpt lat="50.37785" lon="4.68308">
        <ele>245.75</ele>
        <time>2016-10-08T08:54:15Z</time>
      </trkpt>
      <trkpt lat="50.37807" lon="4.68309">
        <ele>245.75</ele>
        <time>2016-10-08T08:54:30Z</time>
      </trkpt>
      <trkpt lat="50.37831" lon="4.68311">
        <ele>245.75</ele>
        <time>2016-10-08T08:54:47Z</time>
      </trkpt>
      <trkpt lat="50.37854" lon="4.68317">
        <ele>244.79</ele>
        <time>2016-10-08T08:55:04Z</time>
      </trkpt>
      <trkpt lat="50.37878" lon="4.68323">
        <ele>244.79</ele>
        <time>2016-10-08T08:55:22Z</time>
      </trkpt>
      <trkpt lat="50.37905" lon="4.68333">
        <ele>243.83</ele>
        <time>2016-10-08T08:55:41Z</time>
      </trkpt>
      <trkpt lat="50.37929" lon="4.68341">
        <ele>242.87</ele>
        <time>2016-10-08T08:55:59Z</time>
      </trkpt>
      <trkpt lat="50.37957" lon="4.68349">
        <ele>241.91</ele>
        <time>2016-10-08T08:56:18Z</time>
      </trkpt>
      <trkpt lat="50.37984" lon="4.68356">
        <ele>241.43</ele>
        <time>2016-10-08T08:56:38Z</time>
      </trkpt>
      <trkpt lat="50.3801" lon="4.68364">
        <ele>240.47</ele>
        <time>2016-10-08T08:56:56Z</time>
      </trkpt>
      <trkpt lat="50.38033" lon="4.68373">
        <ele>239.99</ele>
        <time>2016-10-08T08:57:13Z</time>
      </trkpt>
      <trkpt lat="50.38057" lon="4.68384">
        <ele>239.02</ele>
        <time>2016-10-08T08:57:31Z</time>
      </trkpt>
      <trkpt lat="50.38081" lon="4.68389">
        <ele>238.54</ele>
        <time>2016-10-08T08:57:49Z</time>
      </trkpt>
      <trkpt lat="50.38107" lon="4.68398">
        <ele>238.06</ele>
        <time>2016-10-08T08:58:07Z</time>
      </trkpt>
      <trkpt lat="50.38133" lon="4.68408">
        <ele>236.62</ele>
        <time>2016-10-08T08:58:26Z</time>
      </trkpt>
      <trkpt lat="50.3816" lon="4.68417">
        <ele>236.14</ele>
        <time>2016-10-08T08:58:45Z</time>
      </trkpt>
      <trkpt lat="50.3818" lon="4.68426">
        <ele>235.66</ele>
        <time>2016-10-08T08:59:01Z</time>
      </trkpt>
      <trkpt lat="50.38206" lon="4.68434">
        <ele>235.66</ele>
        <time>2016-10-08T08:59:19Z</time>
      </trkpt>
      <trkpt lat="50.38228" lon="4.68443">
        <ele>234.7</ele>
        <time>2016-10-08T08:59:36Z</time>
      </trkpt>
      <trkpt lat="50.38256" lon="4.68455">
        <ele>233.74</ele>
        <time>2016-10-08T08:59:55Z</time>
      </trkpt>
      <trkpt lat="50.38282" lon="4.68466">
        <ele>232.3</ele>
        <time>2016-10-08T09:00:16Z</time>
      </trkpt>
      <trkpt lat="50.38308" lon="4.68475">
        <ele>230.37</ele>
        <time>2016-10-08T09:00:35Z</time>
      </trkpt>
      <trkpt lat="50.38333" lon="4.68488">
        <ele>229.41</ele>
        <time>2016-10-08T09:00:54Z</time>
      </trkpt>
      <trkpt lat="50.38356" lon="4.68498">
        <ele>227.97</ele>
        <time>2016-10-08T09:01:11Z</time>
      </trkpt>
      <trkpt lat="50.38376" lon="4.68511">
        <ele>226.53</ele>
        <time>2016-10-08T09:01:28Z</time>
      </trkpt>
      <trkpt lat="50.3839" lon="4.68516">
        <ele>226.05</ele>
        <time>2016-10-08T09:01:38Z</time>
      </trkpt>
      <trkpt lat="50.38391" lon="4.68518">
        <ele>225.57</ele>
        <time>2016-10-08T09:01:39Z</time>
      </trkpt>
      <trkpt lat="50.38392" lon="4.68519">
        <ele>225.57</ele>
        <time>2016-10-08T09:01:40Z</time>
      </trkpt>
      <trkpt lat="50.38393" lon="4.68521">
        <ele>225.57</ele>
        <time>2016-10-08T09:01:41Z</time>
      </trkpt>
      <trkpt lat="50.38394" lon="4.68523">
        <ele>225.57</ele>
        <time>2016-10-08T09:01:42Z</time>
      </trkpt>
      <trkpt lat="50.38411" lon="4.68542">
        <ele>225.09</ele>
        <time>2016-10-08T09:01:58Z</time>
      </trkpt>
      <trkpt lat="50.38431" lon="4.68548">
        <ele>225.09</ele>
        <time>2016-10-08T09:02:13Z</time>
      </trkpt>
      <trkpt lat="50.38454" lon="4.68553">
        <ele>227.01</ele>
        <time>2016-10-08T09:02:29Z</time>
      </trkpt>
      <trkpt lat="50.38477" lon="4.6856">
        <ele>227.49</ele>
        <time>2016-10-08T09:02:45Z</time>
      </trkpt>
      <trkpt lat="50.38498" lon="4.68565">
        <ele>228.93</ele>
        <time>2016-10-08T09:03:02Z</time>
      </trkpt>
      <trkpt lat="50.38523" lon="4.68572">
        <ele>229.41</ele>
        <time>2016-10-08T09:03:20Z</time>
      </trkpt>
      <trkpt lat="50.38553" lon="4.68578">
        <ele>229.41</ele>
        <time>2016-10-08T09:03:40Z</time>
      </trkpt>
      <trkpt lat="50.38576" lon="4.6858">
        <ele>227.97</ele>
        <time>2016-10-08T09:03:56Z</time>
      </trkpt>
      <trkpt lat="50.386" lon="4.68578">
        <ele>227.49</ele>
        <time>2016-10-08T09:04:13Z</time>
      </trkpt>
      <trkpt lat="50.38602" lon="4.68573">
        <ele>227.49</ele>
        <time>2016-10-08T09:04:17Z</time>
      </trkpt>
      <trkpt lat="50.38603" lon="4.68571">
        <ele>227.49</ele>
        <time>2016-10-08T09:04:18Z</time>
      </trkpt>
      <trkpt lat="50.38603" lon="4.68569">
        <ele>227.49</ele>
        <time>2016-10-08T09:04:19Z</time>
      </trkpt>
      <trkpt lat="50.38601" lon="4.68552">
        <ele>227.01</ele>
        <time>2016-10-08T09:04:30Z</time>
      </trkpt>
      <trkpt lat="50.38596" lon="4.68534">
        <ele>227.01</ele>
        <time>2016-10-08T09:04:43Z</time>
      </trkpt>
      <trkpt lat="50.38592" lon="4.6852">
        <ele>227.01</ele>
        <time>2016-10-08T09:04:59Z</time>
      </trkpt>
      <trkpt lat="50.38593" lon="4.68506">
        <ele>227.01</ele>
        <time>2016-10-08T09:05:19Z</time>
      </trkpt>
      <trkpt lat="50.3859" lon="4.68499">
        <ele>227.01</ele>
        <time>2016-10-08T09:05:39Z</time>
      </trkpt>
      <trkpt lat="50.38591" lon="4.68501">
        <ele>227.01</ele>
        <time>2016-10-08T09:06:05Z</time>
      </trkpt>
      <trkpt lat="50.38588" lon="4.68516">
        <ele>227.01</ele>
        <time>2016-10-08T09:06:24Z</time>
      </trkpt>
      <trkpt lat="50.38591" lon="4.68532">
        <ele>227.01</ele>
        <time>2016-10-08T09:06:45Z</time>
      </trkpt>
      <trkpt lat="50.38597" lon="4.68534">
        <ele>227.01</ele>
        <time>2016-10-08T09:07:00Z</time>
      </trkpt>
      <trkpt lat="50.38599" lon="4.68533">
        <ele>227.01</ele>
        <time>2016-10-08T09:07:17Z</time>
      </trkpt>
      <trkpt lat="50.38598" lon="4.68532">
        <ele>227.01</ele>
        <time>2016-10-08T09:07:32Z</time>
      </trkpt>
      <trkpt lat="50.38597" lon="4.68531">
        <ele>227.01</ele>
        <time>2016-10-08T09:07:52Z</time>
      </trkpt>
      <trkpt lat="50.38598" lon="4.68532">
        <ele>227.01</ele>
        <time>2016-10-08T09:08:14Z</time>
      </trkpt>
      <trkpt lat="50.38597" lon="4.68534">
        <ele>227.01</ele>
        <time>2016-10-08T09:08:37Z</time>
      </trkpt>
      <trkpt lat="50.38599" lon="4.68536">
        <ele>227.01</ele>
        <time>2016-10-08T09:08:50Z</time>
      </trkpt>
      <trkpt lat="50.386" lon="4.68537">
        <ele>227.01</ele>
        <time>2016-10-08T09:08:51Z</time>
      </trkpt>
      <trkpt lat="50.38601" lon="4.68538">
        <ele>227.01</ele>
        <time>2016-10-08T09:08:52Z</time>
      </trkpt>
      <trkpt lat="50.38602" lon="4.68545">
        <ele>226.53</ele>
        <time>2016-10-08T09:08:57Z</time>
      </trkpt>
      <trkpt lat="50.38602" lon="4.68549">
        <ele>226.53</ele>
        <time>2016-10-08T09:08:59Z</time>
      </trkpt>
      <trkpt lat="50.38602" lon="4.68552">
        <ele>226.53</ele>
        <time>2016-10-08T09:09:00Z</time>
      </trkpt>
      <trkpt lat="50.38602" lon="4.68554">
        <ele>226.53</ele>
        <time>2016-10-08T09:09:01Z</time>
      </trkpt>
      <trkpt lat="50.38601" lon="4.68556">
        <ele>226.53</ele>
        <time>2016-10-08T09:09:02Z</time>
      </trkpt>
      <trkpt lat="50.38601" lon="4.68558">
        <ele>226.53</ele>
        <time>2016-10-08T09:09:03Z</time>
      </trkpt>
      <trkpt lat="50.38601" lon="4.68561">
        <ele>226.53</ele>
        <time>2016-10-08T09:09:04Z</time>
      </trkpt>
      <trkpt lat="50.38602" lon="4.68572">
        <ele>226.53</ele>
        <time>2016-10-08T09:09:09Z</time>
      </trkpt>
      <trkpt lat="50.38602" lon="4.68573">
        <ele>226.53</ele>
        <time>2016-10-08T09:09:10Z</time>
      </trkpt>
      <trkpt lat="50.38602" lon="4.68575">
        <ele>226.53</ele>
        <time>2016-10-08T09:09:11Z</time>
      </trkpt>
      <trkpt lat="50.38603" lon="4.68583">
        <ele>226.53</ele>
        <time>2016-10-08T09:09:25Z</time>
      </trkpt>
      <trkpt lat="50.38603" lon="4.68587">
        <ele>226.53</ele>
        <time>2016-10-08T09:09:42Z</time>
      </trkpt>
      <trkpt lat="50.38604" lon="4.68588">
        <ele>226.53</ele>
        <time>2016-10-08T09:09:56Z</time>
      </trkpt>
      <trkpt lat="50.38602" lon="4.68584">
        <ele>226.53</ele>
        <time>2016-10-08T09:10:06Z</time>
      </trkpt>
      <trkpt lat="50.386" lon="4.68584">
        <ele>226.53</ele>
        <time>2016-10-08T09:10:07Z</time>
      </trkpt>
      <trkpt lat="50.38599" lon="4.68584">
        <ele>226.53</ele>
        <time>2016-10-08T09:10:08Z</time>
      </trkpt>
      <trkpt lat="50.38572" lon="4.68585">
        <ele>226.53</ele>
        <time>2016-10-08T09:10:25Z</time>
      </trkpt>
      <trkpt lat="50.38569" lon="4.68584">
        <ele>226.53</ele>
        <time>2016-10-08T09:10:27Z</time>
      </trkpt>
      <trkpt lat="50.38568" lon="4.68584">
        <ele>226.53</ele>
        <time>2016-10-08T09:10:28Z</time>
      </trkpt>
      <trkpt lat="50.38566" lon="4.68583">
        <ele>227.49</ele>
        <time>2016-10-08T09:10:29Z</time>
      </trkpt>
      <trkpt lat="50.38565" lon="4.68583">
        <ele>227.49</ele>
        <time>2016-10-08T09:10:30Z</time>
      </trkpt>
      <trkpt lat="50.38564" lon="4.68583">
        <ele>227.49</ele>
        <time>2016-10-08T09:10:31Z</time>
      </trkpt>
      <trkpt lat="50.38562" lon="4.68583">
        <ele>227.49</ele>
        <time>2016-10-08T09:10:32Z</time>
      </trkpt>
      <trkpt lat="50.3854" lon="4.68589">
        <ele>227.97</ele>
        <time>2016-10-08T09:10:48Z</time>
      </trkpt>
      <trkpt lat="50.38529" lon="4.68598">
        <ele>228.45</ele>
        <time>2016-10-08T09:10:59Z</time>
      </trkpt>
      <trkpt lat="50.38508" lon="4.68615">
        <ele>228.45</ele>
        <time>2016-10-08T09:11:16Z</time>
      </trkpt>
      <trkpt lat="50.38505" lon="4.6862">
        <ele>228.45</ele>
        <time>2016-10-08T09:11:24Z</time>
      </trkpt>
      <trkpt lat="50.38504" lon="4.68622">
        <ele>228.45</ele>
        <time>2016-10-08T09:11:25Z</time>
      </trkpt>
      <trkpt lat="50.38503" lon="4.68623">
        <ele>228.45</ele>
        <time>2016-10-08T09:11:26Z</time>
      </trkpt>
      <trkpt lat="50.38502" lon="4.68625">
        <ele>228.45</ele>
        <time>2016-10-08T09:11:27Z</time>
      </trkpt>
      <trkpt lat="50.38502" lon="4.68627">
        <ele>228.45</ele>
        <time>2016-10-08T09:11:28Z</time>
      </trkpt>
      <trkpt lat="50.38501" lon="4.68628">
        <ele>228.93</ele>
        <time>2016-10-08T09:11:29Z</time>
      </trkpt>
      <trkpt lat="50.385" lon="4.6863">
        <ele>228.45</ele>
        <time>2016-10-08T09:11:30Z</time>
      </trkpt>
      <trkpt lat="50.38499" lon="4.68632">
        <ele>228.45</ele>
        <time>2016-10-08T09:11:31Z</time>
      </trkpt>
      <trkpt lat="50.38499" lon="4.68634">
        <ele>228.45</ele>
        <time>2016-10-08T09:11:32Z</time>
      </trkpt>
      <trkpt lat="50.38493" lon="4.68669">
        <ele>228.93</ele>
        <time>2016-10-08T09:11:48Z</time>
      </trkpt>
      <trkpt lat="50.38488" lon="4.68704">
        <ele>229.41</ele>
        <time>2016-10-08T09:12:02Z</time>
      </trkpt>
      <trkpt lat="50.38484" lon="4.68739">
        <ele>229.89</ele>
        <time>2016-10-08T09:12:16Z</time>
      </trkpt>
      <trkpt lat="50.38476" lon="4.68772">
        <ele>229.89</ele>
        <time>2016-10-08T09:12:29Z</time>
      </trkpt>
      <trkpt lat="50.38474" lon="4.68804">
        <ele>230.37</ele>
        <time>2016-10-08T09:12:42Z</time>
      </trkpt>
      <trkpt lat="50.38471" lon="4.68836">
        <ele>230.37</ele>
        <time>2016-10-08T09:12:56Z</time>
      </trkpt>
      <trkpt lat="50.38465" lon="4.68871">
        <ele>230.85</ele>
        <time>2016-10-08T09:13:11Z</time>
      </trkpt>
      <trkpt lat="50.3846" lon="4.689">
        <ele>231.33</ele>
        <time>2016-10-08T09:13:25Z</time>
      </trkpt>
      <trkpt lat="50.38462" lon="4.68926">
        <ele>231.33</ele>
        <time>2016-10-08T09:13:36Z</time>
      </trkpt>
      <trkpt lat="50.38462" lon="4.68928">
        <ele>231.33</ele>
        <time>2016-10-08T09:13:37Z</time>
      </trkpt>
      <trkpt lat="50.38463" lon="4.6893">
        <ele>231.33</ele>
        <time>2016-10-08T09:13:38Z</time>
      </trkpt>
      <trkpt lat="50.38463" lon="4.68931">
        <ele>231.33</ele>
        <time>2016-10-08T09:13:39Z</time>
      </trkpt>
      <trkpt lat="50.38463" lon="4.68933">
        <ele>231.33</ele>
        <time>2016-10-08T09:13:40Z</time>
      </trkpt>
      <trkpt lat="50.38463" lon="4.68936">
        <ele>231.33</ele>
        <time>2016-10-08T09:13:41Z</time>
      </trkpt>
      <trkpt lat="50.38462" lon="4.68938">
        <ele>231.33</ele>
        <time>2016-10-08T09:13:42Z</time>
      </trkpt>
      <trkpt lat="50.38459" lon="4.6897">
        <ele>231.81</ele>
        <time>2016-10-08T09:13:57Z</time>
      </trkpt>
      <trkpt lat="50.38454" lon="4.6901">
        <ele>232.3</ele>
        <time>2016-10-08T09:14:13Z</time>
      </trkpt>
      <trkpt lat="50.3845" lon="4.6904">
        <ele>232.78</ele>
        <time>2016-10-08T09:14:27Z</time>
      </trkpt>
      <trkpt lat="50.38447" lon="4.6907">
        <ele>232.78</ele>
        <time>2016-10-08T09:14:42Z</time>
      </trkpt>
      <trkpt lat="50.38448" lon="4.69081">
        <ele>232.78</ele>
        <time>2016-10-08T09:14:48Z</time>
      </trkpt>
      <trkpt lat="50.38449" lon="4.69083">
        <ele>232.78</ele>
        <time>2016-10-08T09:14:49Z</time>
      </trkpt>
      <trkpt lat="50.38453" lon="4.69123">
        <ele>233.26</ele>
        <time>2016-10-08T09:15:08Z</time>
      </trkpt>
      <trkpt lat="50.38452" lon="4.69159">
        <ele>233.26</ele>
        <time>2016-10-08T09:15:23Z</time>
      </trkpt>
      <trkpt lat="50.38449" lon="4.69192">
        <ele>234.22</ele>
        <time>2016-10-08T09:15:38Z</time>
      </trkpt>
      <trkpt lat="50.38446" lon="4.69224">
        <ele>234.22</ele>
        <time>2016-10-08T09:15:53Z</time>
      </trkpt>
      <trkpt lat="50.38443" lon="4.69254">
        <ele>234.7</ele>
        <time>2016-10-08T09:16:08Z</time>
      </trkpt>
      <trkpt lat="50.38442" lon="4.69282">
        <ele>235.18</ele>
        <time>2016-10-08T09:16:22Z</time>
      </trkpt>
      <trkpt lat="50.38439" lon="4.69304">
        <ele>235.18</ele>
        <time>2016-10-08T09:16:34Z</time>
      </trkpt>
      <trkpt lat="50.38435" lon="4.69338">
        <ele>235.18</ele>
        <time>2016-10-08T09:16:49Z</time>
      </trkpt>
      <trkpt lat="50.38433" lon="4.69367">
        <ele>235.66</ele>
        <time>2016-10-08T09:17:05Z</time>
      </trkpt>
      <trkpt lat="50.38432" lon="4.69377">
        <ele>235.66</ele>
        <time>2016-10-08T09:17:11Z</time>
      </trkpt>
      <trkpt lat="50.38432" lon="4.69379">
        <ele>235.66</ele>
        <time>2016-10-08T09:17:12Z</time>
      </trkpt>
      <trkpt lat="50.38429" lon="4.69413">
        <ele>235.66</ele>
        <time>2016-10-08T09:17:28Z</time>
      </trkpt>
      <trkpt lat="50.38426" lon="4.6944">
        <ele>235.66</ele>
        <time>2016-10-08T09:17:41Z</time>
      </trkpt>
      <trkpt lat="50.38424" lon="4.69471">
        <ele>235.66</ele>
        <time>2016-10-08T09:17:58Z</time>
      </trkpt>
      <trkpt lat="50.38424" lon="4.69474">
        <ele>235.66</ele>
        <time>2016-10-08T09:17:59Z</time>
      </trkpt>
      <trkpt lat="50.38426" lon="4.69476">
        <ele>235.66</ele>
        <time>2016-10-08T09:18:01Z</time>
      </trkpt>
      <trkpt lat="50.38427" lon="4.69478">
        <ele>235.66</ele>
        <time>2016-10-08T09:18:02Z</time>
      </trkpt>
      <trkpt lat="50.38427" lon="4.6948">
        <ele>235.66</ele>
        <time>2016-10-08T09:18:03Z</time>
      </trkpt>
      <trkpt lat="50.38428" lon="4.69481">
        <ele>235.66</ele>
        <time>2016-10-08T09:18:04Z</time>
      </trkpt>
      <trkpt lat="50.3843" lon="4.69482">
        <ele>235.66</ele>
        <time>2016-10-08T09:18:05Z</time>
      </trkpt>
      <trkpt lat="50.38431" lon="4.69483">
        <ele>235.66</ele>
        <time>2016-10-08T09:18:06Z</time>
      </trkpt>
      <trkpt lat="50.38432" lon="4.69483">
        <ele>235.66</ele>
        <time>2016-10-08T09:18:07Z</time>
      </trkpt>
      <trkpt lat="50.38434" lon="4.69484">
        <ele>235.66</ele>
        <time>2016-10-08T09:18:08Z</time>
      </trkpt>
      <trkpt lat="50.38436" lon="4.69484">
        <ele>235.66</ele>
        <time>2016-10-08T09:18:09Z</time>
      </trkpt>
      <trkpt lat="50.38437" lon="4.69484">
        <ele>235.66</ele>
        <time>2016-10-08T09:18:10Z</time>
      </trkpt>
      <trkpt lat="50.38439" lon="4.69485">
        <ele>235.66</ele>
        <time>2016-10-08T09:18:11Z</time>
      </trkpt>
      <trkpt lat="50.3844" lon="4.69485">
        <ele>235.66</ele>
        <time>2016-10-08T09:18:12Z</time>
      </trkpt>
      <trkpt lat="50.38442" lon="4.69486">
        <ele>235.66</ele>
        <time>2016-10-08T09:18:13Z</time>
      </trkpt>
      <trkpt lat="50.38443" lon="4.69486">
        <ele>235.66</ele>
        <time>2016-10-08T09:18:14Z</time>
      </trkpt>
      <trkpt lat="50.3846" lon="4.69491">
        <ele>234.22</ele>
        <time>2016-10-08T09:18:27Z</time>
      </trkpt>
      <trkpt lat="50.38479" lon="4.69494">
        <ele>233.74</ele>
        <time>2016-10-08T09:18:42Z</time>
      </trkpt>
      <trkpt lat="50.38505" lon="4.69499">
        <ele>233.74</ele>
        <time>2016-10-08T09:18:58Z</time>
      </trkpt>
      <trkpt lat="50.38523" lon="4.69502">
        <ele>233.26</ele>
        <time>2016-10-08T09:19:12Z</time>
      </trkpt>
      <trkpt lat="50.38538" lon="4.69505">
        <ele>232.3</ele>
        <time>2016-10-08T09:19:25Z</time>
      </trkpt>
      <trkpt lat="50.38552" lon="4.69507">
        <ele>231.33</ele>
        <time>2016-10-08T09:19:37Z</time>
      </trkpt>
      <trkpt lat="50.38578" lon="4.69509">
        <ele>229.89</ele>
        <time>2016-10-08T09:19:54Z</time>
      </trkpt>
      <trkpt lat="50.38597" lon="4.69514">
        <ele>228.93</ele>
        <time>2016-10-08T09:20:07Z</time>
      </trkpt>
      <trkpt lat="50.38621" lon="4.69516">
        <ele>227.97</ele>
        <time>2016-10-08T09:20:22Z</time>
      </trkpt>
      <trkpt lat="50.38642" lon="4.69513">
        <ele>226.05</ele>
        <time>2016-10-08T09:20:36Z</time>
      </trkpt>
      <trkpt lat="50.38662" lon="4.69514">
        <ele>224.61</ele>
        <time>2016-10-08T09:20:50Z</time>
      </trkpt>
      <trkpt lat="50.38686" lon="4.6952">
        <ele>223.16</ele>
        <time>2016-10-08T09:21:06Z</time>
      </trkpt>
      <trkpt lat="50.38707" lon="4.69522">
        <ele>221.72</ele>
        <time>2016-10-08T09:21:21Z</time>
      </trkpt>
      <trkpt lat="50.38729" lon="4.69522">
        <ele>221.24</ele>
        <time>2016-10-08T09:21:34Z</time>
      </trkpt>
      <trkpt lat="50.38752" lon="4.6953">
        <ele>220.76</ele>
        <time>2016-10-08T09:21:49Z</time>
      </trkpt>
      <trkpt lat="50.38757" lon="4.69533">
        <ele>219.8</ele>
        <time>2016-10-08T09:21:53Z</time>
      </trkpt>
      <trkpt lat="50.38758" lon="4.69533">
        <ele>219.8</ele>
        <time>2016-10-08T09:21:54Z</time>
      </trkpt>
      <trkpt lat="50.38759" lon="4.69534">
        <ele>219.32</ele>
        <time>2016-10-08T09:21:55Z</time>
      </trkpt>
      <trkpt lat="50.38761" lon="4.69535">
        <ele>219.32</ele>
        <time>2016-10-08T09:21:56Z</time>
      </trkpt>
      <trkpt lat="50.38762" lon="4.69535">
        <ele>219.32</ele>
        <time>2016-10-08T09:21:57Z</time>
      </trkpt>
      <trkpt lat="50.38763" lon="4.69536">
        <ele>219.32</ele>
        <time>2016-10-08T09:21:58Z</time>
      </trkpt>
      <trkpt lat="50.38788" lon="4.69558">
        <ele>217.4</ele>
        <time>2016-10-08T09:22:16Z</time>
      </trkpt>
      <trkpt lat="50.38805" lon="4.69576">
        <ele>216.91</ele>
        <time>2016-10-08T09:22:30Z</time>
      </trkpt>
      <trkpt lat="50.38828" lon="4.69597">
        <ele>215.47</ele>
        <time>2016-10-08T09:22:47Z</time>
      </trkpt>
      <trkpt lat="50.38839" lon="4.69608">
        <ele>214.99</ele>
        <time>2016-10-08T09:22:56Z</time>
      </trkpt>
      <trkpt lat="50.38843" lon="4.69612">
        <ele>214.03</ele>
        <time>2016-10-08T09:22:59Z</time>
      </trkpt>
      <trkpt lat="50.38861" lon="4.69629">
        <ele>211.63</ele>
        <time>2016-10-08T09:23:13Z</time>
      </trkpt>
      <trkpt lat="50.38886" lon="4.69648">
        <ele>209.22</ele>
        <time>2016-10-08T09:23:31Z</time>
      </trkpt>
      <trkpt lat="50.38909" lon="4.69663">
        <ele>207.78</ele>
        <time>2016-10-08T09:23:48Z</time>
      </trkpt>
      <trkpt lat="50.38929" lon="4.69675">
        <ele>206.82</ele>
        <time>2016-10-08T09:24:03Z</time>
      </trkpt>
      <trkpt lat="50.38958" lon="4.69685">
        <ele>204.42</ele>
        <time>2016-10-08T09:24:21Z</time>
      </trkpt>
      <trkpt lat="50.38982" lon="4.69692">
        <ele>202.49</ele>
        <time>2016-10-08T09:24:38Z</time>
      </trkpt>
      <trkpt lat="50.39005" lon="4.69699">
        <ele>200.09</ele>
        <time>2016-10-08T09:24:53Z</time>
      </trkpt>
      <trkpt lat="50.39034" lon="4.69706">
        <ele>198.17</ele>
        <time>2016-10-08T09:25:11Z</time>
      </trkpt>
      <trkpt lat="50.39055" lon="4.69716">
        <ele>196.73</ele>
        <time>2016-10-08T09:25:26Z</time>
      </trkpt>
      <trkpt lat="50.39078" lon="4.69725">
        <ele>194.8</ele>
        <time>2016-10-08T09:25:41Z</time>
      </trkpt>
      <trkpt lat="50.391" lon="4.69734">
        <ele>193.36</ele>
        <time>2016-10-08T09:25:56Z</time>
      </trkpt>
      <trkpt lat="50.39107" lon="4.69735">
        <ele>192.88</ele>
        <time>2016-10-08T09:26:00Z</time>
      </trkpt>
      <trkpt lat="50.39108" lon="4.69733">
        <ele>192.88</ele>
        <time>2016-10-08T09:26:01Z</time>
      </trkpt>
      <trkpt lat="50.39123" lon="4.69699">
        <ele>191.92</ele>
        <time>2016-10-08T09:26:17Z</time>
      </trkpt>
      <trkpt lat="50.39139" lon="4.69664">
        <ele>190.96</ele>
        <time>2016-10-08T09:26:34Z</time>
      </trkpt>
      <trkpt lat="50.39154" lon="4.69629">
        <ele>189.52</ele>
        <time>2016-10-08T09:26:51Z</time>
      </trkpt>
      <trkpt lat="50.39166" lon="4.69597">
        <ele>188.56</ele>
        <time>2016-10-08T09:27:07Z</time>
      </trkpt>
      <trkpt lat="50.39181" lon="4.69558">
        <ele>187.11</ele>
        <time>2016-10-08T09:27:25Z</time>
      </trkpt>
      <trkpt lat="50.39191" lon="4.69522">
        <ele>186.15</ele>
        <time>2016-10-08T09:27:41Z</time>
      </trkpt>
      <trkpt lat="50.39194" lon="4.69488">
        <ele>185.67</ele>
        <time>2016-10-08T09:27:56Z</time>
      </trkpt>
      <trkpt lat="50.39201" lon="4.6944">
        <ele>183.75</ele>
        <time>2016-10-08T09:28:17Z</time>
      </trkpt>
      <trkpt lat="50.3922" lon="4.6941">
        <ele>181.35</ele>
        <time>2016-10-08T09:28:34Z</time>
      </trkpt>
      <trkpt lat="50.39228" lon="4.69397">
        <ele>180.87</ele>
        <time>2016-10-08T09:28:41Z</time>
      </trkpt>
      <trkpt lat="50.39235" lon="4.694">
        <ele>179.42</ele>
        <time>2016-10-08T09:28:49Z</time>
      </trkpt>
      <trkpt lat="50.39255" lon="4.69407">
        <ele>177.5</ele>
        <time>2016-10-08T09:29:02Z</time>
      </trkpt>
      <trkpt lat="50.39277" lon="4.69387">
        <ele>175.1</ele>
        <time>2016-10-08T09:29:17Z</time>
      </trkpt>
      <trkpt lat="50.39294" lon="4.694">
        <ele>174.62</ele>
        <time>2016-10-08T09:29:31Z</time>
      </trkpt>
      <trkpt lat="50.39295" lon="4.69401">
        <ele>174.62</ele>
        <time>2016-10-08T09:29:32Z</time>
      </trkpt>
      <trkpt lat="50.39311" lon="4.69432">
        <ele>175.58</ele>
        <time>2016-10-08T09:29:47Z</time>
      </trkpt>
      <trkpt lat="50.39317" lon="4.69446">
        <ele>175.58</ele>
        <time>2016-10-08T09:29:55Z</time>
      </trkpt>
      <trkpt lat="50.39318" lon="4.69448">
        <ele>175.58</ele>
        <time>2016-10-08T09:29:56Z</time>
      </trkpt>
      <trkpt lat="50.39318" lon="4.6945">
        <ele>175.58</ele>
        <time>2016-10-08T09:29:57Z</time>
      </trkpt>
      <trkpt lat="50.39315" lon="4.69476">
        <ele>175.58</ele>
        <time>2016-10-08T09:30:10Z</time>
      </trkpt>
      <trkpt lat="50.39328" lon="4.69498">
        <ele>176.54</ele>
        <time>2016-10-08T09:30:24Z</time>
      </trkpt>
      <trkpt lat="50.39344" lon="4.69522">
        <ele>176.54</ele>
        <time>2016-10-08T09:30:40Z</time>
      </trkpt>
      <trkpt lat="50.39345" lon="4.69524">
        <ele>176.54</ele>
        <time>2016-10-08T09:30:41Z</time>
      </trkpt>
      <trkpt lat="50.39346" lon="4.69526">
        <ele>176.54</ele>
        <time>2016-10-08T09:30:42Z</time>
      </trkpt>
      <trkpt lat="50.3936" lon="4.69545">
        <ele>176.54</ele>
        <time>2016-10-08T09:30:55Z</time>
      </trkpt>
      <trkpt lat="50.39375" lon="4.69566">
        <ele>176.54</ele>
        <time>2016-10-08T09:31:12Z</time>
      </trkpt>
      <trkpt lat="50.39383" lon="4.69572">
        <ele>175.1</ele>
        <time>2016-10-08T09:31:17Z</time>
      </trkpt>
      <trkpt lat="50.394" lon="4.69581">
        <ele>174.62</ele>
        <time>2016-10-08T09:31:30Z</time>
      </trkpt>
      <trkpt lat="50.39418" lon="4.69603">
        <ele>174.62</ele>
        <time>2016-10-08T09:31:43Z</time>
      </trkpt>
      <trkpt lat="50.3942" lon="4.69606">
        <ele>174.62</ele>
        <time>2016-10-08T09:31:45Z</time>
      </trkpt>
      <trkpt lat="50.39422" lon="4.69607">
        <ele>174.14</ele>
        <time>2016-10-08T09:31:46Z</time>
      </trkpt>
      <trkpt lat="50.39423" lon="4.69608">
        <ele>174.14</ele>
        <time>2016-10-08T09:31:47Z</time>
      </trkpt>
      <trkpt lat="50.39436" lon="4.6962">
        <ele>174.14</ele>
        <time>2016-10-08T09:31:59Z</time>
      </trkpt>
      <trkpt lat="50.3944" lon="4.69608">
        <ele>174.14</ele>
        <time>2016-10-08T09:32:04Z</time>
      </trkpt>
      <trkpt lat="50.39442" lon="4.69609">
        <ele>174.14</ele>
        <time>2016-10-08T09:32:18Z</time>
      </trkpt>
      <trkpt lat="50.39446" lon="4.69607">
        <ele>174.14</ele>
        <time>2016-10-08T09:32:36Z</time>
      </trkpt>
      <trkpt lat="50.39451" lon="4.69604">
        <ele>173.66</ele>
        <time>2016-10-08T09:32:49Z</time>
      </trkpt>
      <trkpt lat="50.39453" lon="4.69602">
        <ele>173.66</ele>
        <time>2016-10-08T09:32:50Z</time>
      </trkpt>
      <trkpt lat="50.39453" lon="4.696">
        <ele>173.66</ele>
        <time>2016-10-08T09:32:51Z</time>
      </trkpt>
      <trkpt lat="50.39459" lon="4.69582">
        <ele>173.17</ele>
        <time>2016-10-08T09:33:01Z</time>
      </trkpt>
      <trkpt lat="50.39477" lon="4.69554">
        <ele>173.17</ele>
        <time>2016-10-08T09:33:16Z</time>
      </trkpt>
      <trkpt lat="50.39491" lon="4.69536">
        <ele>173.17</ele>
        <time>2016-10-08T09:33:29Z</time>
      </trkpt>
      <trkpt lat="50.39508" lon="4.69528">
        <ele>172.69</ele>
        <time>2016-10-08T09:33:42Z</time>
      </trkpt>
      <trkpt lat="50.39509" lon="4.6953">
        <ele>172.69</ele>
        <time>2016-10-08T09:33:43Z</time>
      </trkpt>
      <trkpt lat="50.39511" lon="4.69533">
        <ele>172.69</ele>
        <time>2016-10-08T09:33:45Z</time>
      </trkpt>
      <trkpt lat="50.39513" lon="4.69537">
        <ele>172.21</ele>
        <time>2016-10-08T09:33:46Z</time>
      </trkpt>
      <trkpt lat="50.39514" lon="4.69539">
        <ele>172.21</ele>
        <time>2016-10-08T09:33:47Z</time>
      </trkpt>
      <trkpt lat="50.39515" lon="4.6954">
        <ele>172.21</ele>
        <time>2016-10-08T09:33:48Z</time>
      </trkpt>
      <trkpt lat="50.39517" lon="4.69542">
        <ele>171.73</ele>
        <time>2016-10-08T09:33:49Z</time>
      </trkpt>
      <trkpt lat="50.39518" lon="4.69543">
        <ele>171.73</ele>
        <time>2016-10-08T09:33:50Z</time>
      </trkpt>
      <trkpt lat="50.39519" lon="4.69545">
        <ele>171.25</ele>
        <time>2016-10-08T09:33:51Z</time>
      </trkpt>
      <trkpt lat="50.39526" lon="4.69556">
        <ele>170.77</ele>
        <time>2016-10-08T09:33:57Z</time>
      </trkpt>
      <trkpt lat="50.39527" lon="4.69557">
        <ele>170.77</ele>
        <time>2016-10-08T09:33:58Z</time>
      </trkpt>
      <trkpt lat="50.39528" lon="4.69559">
        <ele>170.77</ele>
        <time>2016-10-08T09:33:59Z</time>
      </trkpt>
      <trkpt lat="50.39529" lon="4.69561">
        <ele>170.77</ele>
        <time>2016-10-08T09:34:00Z</time>
      </trkpt>
      <trkpt lat="50.3953" lon="4.69562">
        <ele>170.77</ele>
        <time>2016-10-08T09:34:01Z</time>
      </trkpt>
      <trkpt lat="50.39531" lon="4.69564">
        <ele>170.77</ele>
        <time>2016-10-08T09:34:02Z</time>
      </trkpt>
      <trkpt lat="50.39537" lon="4.6957">
        <ele>170.29</ele>
        <time>2016-10-08T09:34:08Z</time>
      </trkpt>
      <trkpt lat="50.39559" lon="4.69574">
        <ele>170.29</ele>
        <time>2016-10-08T09:34:24Z</time>
      </trkpt>
      <trkpt lat="50.39577" lon="4.69585">
        <ele>169.81</ele>
        <time>2016-10-08T09:34:36Z</time>
      </trkpt>
      <trkpt lat="50.39577" lon="4.69592">
        <ele>169.81</ele>
        <time>2016-10-08T09:34:43Z</time>
      </trkpt>
      <trkpt lat="50.39578" lon="4.69595">
        <ele>169.81</ele>
        <time>2016-10-08T09:34:46Z</time>
      </trkpt>
      <trkpt lat="50.39583" lon="4.69602">
        <ele>169.81</ele>
        <time>2016-10-08T09:34:51Z</time>
      </trkpt>
      <trkpt lat="50.39589" lon="4.69614">
        <ele>169.81</ele>
        <time>2016-10-08T09:34:58Z</time>
      </trkpt>
      <trkpt lat="50.39616" lon="4.6963">
        <ele>169.33</ele>
        <time>2016-10-08T09:35:14Z</time>
      </trkpt>
      <trkpt lat="50.39632" lon="4.69649">
        <ele>168.85</ele>
        <time>2016-10-08T09:35:29Z</time>
      </trkpt>
      <trkpt lat="50.39634" lon="4.6965">
        <ele>168.85</ele>
        <time>2016-10-08T09:35:31Z</time>
      </trkpt>
      <trkpt lat="50.39635" lon="4.69653">
        <ele>168.85</ele>
        <time>2016-10-08T09:35:33Z</time>
      </trkpt>
      <trkpt lat="50.39639" lon="4.6966">
        <ele>168.85</ele>
        <time>2016-10-08T09:35:38Z</time>
      </trkpt>
      <trkpt lat="50.39642" lon="4.6966">
        <ele>168.85</ele>
        <time>2016-10-08T09:35:40Z</time>
      </trkpt>
      <trkpt lat="50.39643" lon="4.69662">
        <ele>168.37</ele>
        <time>2016-10-08T09:35:41Z</time>
      </trkpt>
      <trkpt lat="50.39644" lon="4.69663">
        <ele>168.37</ele>
        <time>2016-10-08T09:35:42Z</time>
      </trkpt>
      <trkpt lat="50.39645" lon="4.69665">
        <ele>168.37</ele>
        <time>2016-10-08T09:35:43Z</time>
      </trkpt>
      <trkpt lat="50.39645" lon="4.69668">
        <ele>168.37</ele>
        <time>2016-10-08T09:35:44Z</time>
      </trkpt>
      <trkpt lat="50.39646" lon="4.69679">
        <ele>168.37</ele>
        <time>2016-10-08T09:35:51Z</time>
      </trkpt>
      <trkpt lat="50.39648" lon="4.69685">
        <ele>168.37</ele>
        <time>2016-10-08T09:35:53Z</time>
      </trkpt>
      <trkpt lat="50.3965" lon="4.69697">
        <ele>169.81</ele>
        <time>2016-10-08T09:36:04Z</time>
      </trkpt>
      <trkpt lat="50.39652" lon="4.69701">
        <ele>170.29</ele>
        <time>2016-10-08T09:36:09Z</time>
      </trkpt>
      <trkpt lat="50.39651" lon="4.69704">
        <ele>171.25</ele>
        <time>2016-10-08T09:36:10Z</time>
      </trkpt>
      <trkpt lat="50.39653" lon="4.69714">
        <ele>170.77</ele>
        <time>2016-10-08T09:36:13Z</time>
      </trkpt>
      <trkpt lat="50.39654" lon="4.69717">
        <ele>171.25</ele>
        <time>2016-10-08T09:36:14Z</time>
      </trkpt>
      <trkpt lat="50.39654" lon="4.6972">
        <ele>171.25</ele>
        <time>2016-10-08T09:36:15Z</time>
      </trkpt>
      <trkpt lat="50.39656" lon="4.69726">
        <ele>171.73</ele>
        <time>2016-10-08T09:36:18Z</time>
      </trkpt>
      <trkpt lat="50.39662" lon="4.6976">
        <ele>172.69</ele>
        <time>2016-10-08T09:36:31Z</time>
      </trkpt>
      <trkpt lat="50.39662" lon="4.69792">
        <ele>173.17</ele>
        <time>2016-10-08T09:36:46Z</time>
      </trkpt>
      <trkpt lat="50.39674" lon="4.69807">
        <ele>173.17</ele>
        <time>2016-10-08T09:37:00Z</time>
      </trkpt>
      <trkpt lat="50.39675" lon="4.69806">
        <ele>173.17</ele>
        <time>2016-10-08T09:37:01Z</time>
      </trkpt>
      <trkpt lat="50.39676" lon="4.69804">
        <ele>173.17</ele>
        <time>2016-10-08T09:37:02Z</time>
      </trkpt>
      <trkpt lat="50.39683" lon="4.69794">
        <ele>171.73</ele>
        <time>2016-10-08T09:37:10Z</time>
      </trkpt>
      <trkpt lat="50.39684" lon="4.69793">
        <ele>171.73</ele>
        <time>2016-10-08T09:37:11Z</time>
      </trkpt>
      <trkpt lat="50.39685" lon="4.69791">
        <ele>171.73</ele>
        <time>2016-10-08T09:37:12Z</time>
      </trkpt>
      <trkpt lat="50.39687" lon="4.69789">
        <ele>171.73</ele>
        <time>2016-10-08T09:37:13Z</time>
      </trkpt>
      <trkpt lat="50.39687" lon="4.69788">
        <ele>171.73</ele>
        <time>2016-10-08T09:37:14Z</time>
      </trkpt>
      <trkpt lat="50.39688" lon="4.69786">
        <ele>171.73</ele>
        <time>2016-10-08T09:37:15Z</time>
      </trkpt>
      <trkpt lat="50.39689" lon="4.69784">
        <ele>171.73</ele>
        <time>2016-10-08T09:37:16Z</time>
      </trkpt>
      <trkpt lat="50.39695" lon="4.69772">
        <ele>171.73</ele>
        <time>2016-10-08T09:37:26Z</time>
      </trkpt>
      <trkpt lat="50.397" lon="4.69768">
        <ele>171.73</ele>
        <time>2016-10-08T09:37:33Z</time>
      </trkpt>
      <trkpt lat="50.39701" lon="4.69769">
        <ele>171.73</ele>
        <time>2016-10-08T09:37:34Z</time>
      </trkpt>
      <trkpt lat="50.39703" lon="4.69771">
        <ele>171.25</ele>
        <time>2016-10-08T09:37:36Z</time>
      </trkpt>
      <trkpt lat="50.39722" lon="4.69784">
        <ele>171.25</ele>
        <time>2016-10-08T09:37:50Z</time>
      </trkpt>
      <trkpt lat="50.39726" lon="4.69787">
        <ele>171.25</ele>
        <time>2016-10-08T09:37:54Z</time>
      </trkpt>
      <trkpt lat="50.39731" lon="4.69777">
        <ele>171.25</ele>
        <time>2016-10-08T09:37:59Z</time>
      </trkpt>
      <trkpt lat="50.39732" lon="4.69773">
        <ele>171.25</ele>
        <time>2016-10-08T09:38:00Z</time>
      </trkpt>
      <trkpt lat="50.3973" lon="4.69753">
        <ele>171.73</ele>
        <time>2016-10-08T09:38:10Z</time>
      </trkpt>
      <trkpt lat="50.39725" lon="4.69741">
        <ele>171.73</ele>
        <time>2016-10-08T09:38:25Z</time>
      </trkpt>
      <trkpt lat="50.39723" lon="4.69738">
        <ele>172.21</ele>
        <time>2016-10-08T09:38:43Z</time>
      </trkpt>
      <trkpt lat="50.39722" lon="4.69735">
        <ele>172.21</ele>
        <time>2016-10-08T09:39:10Z</time>
      </trkpt>
    </trkseg>
  </trk>
</gpx>